<?xml version="1.0" encoding="UTF-8" standalone="no" ?>
<gpx xmlns="http://www.topografix.com/GPX/1/1" creator="CompeGPS" version="1.1" xmlns:xsi="http://www.w3.org/2001/XMLSchema-instance" xsi:schemaLocation="http://www.topografix.com/GPX/1/1 http://www.topografix.com/GPX/1/1/gpx.xsd">
  <metadata>
    <link href="http://www.compegps.com">
      <text>CompeGPS TEAM, SL</text>
    </link>
    <time>2021-11-28T15:52:23Z</time>
    <bounds maxlat="37.254628" maxlon="-3.322019" minlat="37.226410" minlon="-3.377254"/>
  </metadata>
  <trk>
    <name>2021-11-28-TocóndeQuéntar</name>
    <trkseg>
      <trkpt lat="37.240323" lon="-3.371035">
        <ele>1213.8</ele>
        <time>2021-11-28T07:33:10Z</time>
      </trkpt>
      <trkpt lat="37.240326" lon="-3.371077">
        <ele>1211.9</ele>
        <time>2021-11-28T07:34:11Z</time>
      </trkpt>
      <trkpt lat="37.240288" lon="-3.370987">
        <ele>1212.4</ele>
        <time>2021-11-28T07:35:38Z</time>
      </trkpt>
      <trkpt lat="37.240353" lon="-3.371137">
        <ele>1213.3</ele>
        <time>2021-11-28T07:37:05Z</time>
      </trkpt>
      <trkpt lat="37.240353" lon="-3.371360">
        <ele>1212.8</ele>
        <time>2021-11-28T07:37:30Z</time>
      </trkpt>
      <trkpt lat="37.240512" lon="-3.371541">
        <ele>1212.4</ele>
        <time>2021-11-28T07:37:50Z</time>
      </trkpt>
      <trkpt lat="37.240676" lon="-3.371692">
        <ele>1212.8</ele>
        <time>2021-11-28T07:38:07Z</time>
      </trkpt>
      <trkpt lat="37.240811" lon="-3.371793">
        <ele>1212.8</ele>
        <time>2021-11-28T07:39:43Z</time>
      </trkpt>
      <trkpt lat="37.240878" lon="-3.372042">
        <ele>1211.9</ele>
        <time>2021-11-28T07:40:12Z</time>
      </trkpt>
      <trkpt lat="37.240886" lon="-3.372328">
        <ele>1212.8</ele>
        <time>2021-11-28T07:40:36Z</time>
      </trkpt>
      <trkpt lat="37.240854" lon="-3.372555">
        <ele>1210.9</ele>
        <time>2021-11-28T07:40:54Z</time>
      </trkpt>
      <trkpt lat="37.240862" lon="-3.372658">
        <ele>1211.4</ele>
        <time>2021-11-28T07:41:27Z</time>
      </trkpt>
      <trkpt lat="37.240884" lon="-3.372422">
        <ele>1210.9</ele>
        <time>2021-11-28T07:41:43Z</time>
      </trkpt>
      <trkpt lat="37.240879" lon="-3.372175">
        <ele>1211.9</ele>
        <time>2021-11-28T07:41:59Z</time>
      </trkpt>
      <trkpt lat="37.240844" lon="-3.371943">
        <ele>1212.4</ele>
        <time>2021-11-28T07:42:14Z</time>
      </trkpt>
      <trkpt lat="37.240812" lon="-3.371722">
        <ele>1212.4</ele>
        <time>2021-11-28T07:42:34Z</time>
      </trkpt>
      <trkpt lat="37.240970" lon="-3.371878">
        <ele>1217.2</ele>
        <time>2021-11-28T07:42:54Z</time>
      </trkpt>
      <trkpt lat="37.241099" lon="-3.372094">
        <ele>1218.6</ele>
        <time>2021-11-28T07:43:12Z</time>
      </trkpt>
      <trkpt lat="37.241269" lon="-3.372272">
        <ele>1222.0</ele>
        <time>2021-11-28T07:43:39Z</time>
      </trkpt>
      <trkpt lat="37.241457" lon="-3.372284">
        <ele>1229.2</ele>
        <time>2021-11-28T07:44:08Z</time>
      </trkpt>
      <trkpt lat="37.241568" lon="-3.372500">
        <ele>1233.0</ele>
        <time>2021-11-28T07:44:40Z</time>
      </trkpt>
      <trkpt lat="37.241661" lon="-3.372655">
        <ele>1235.0</ele>
        <time>2021-11-28T07:45:02Z</time>
      </trkpt>
      <trkpt lat="37.241871" lon="-3.372648">
        <ele>1238.8</ele>
        <time>2021-11-28T07:45:27Z</time>
      </trkpt>
      <trkpt lat="37.241987" lon="-3.372456">
        <ele>1243.6</ele>
        <time>2021-11-28T07:45:49Z</time>
      </trkpt>
      <trkpt lat="37.242082" lon="-3.372271">
        <ele>1246.0</ele>
        <time>2021-11-28T07:46:15Z</time>
      </trkpt>
      <trkpt lat="37.242277" lon="-3.372208">
        <ele>1247.9</ele>
        <time>2021-11-28T07:46:36Z</time>
      </trkpt>
      <trkpt lat="37.242450" lon="-3.372120">
        <ele>1248.9</ele>
        <time>2021-11-28T07:47:18Z</time>
      </trkpt>
      <trkpt lat="37.242552" lon="-3.372282">
        <ele>1250.3</ele>
        <time>2021-11-28T07:48:16Z</time>
      </trkpt>
      <trkpt lat="37.242642" lon="-3.372471">
        <ele>1251.3</ele>
        <time>2021-11-28T07:48:39Z</time>
      </trkpt>
      <trkpt lat="37.242776" lon="-3.372643">
        <ele>1252.3</ele>
        <time>2021-11-28T07:49:08Z</time>
      </trkpt>
      <trkpt lat="37.242901" lon="-3.372825">
        <ele>1253.7</ele>
        <time>2021-11-28T07:49:34Z</time>
      </trkpt>
      <trkpt lat="37.243058" lon="-3.372970">
        <ele>1254.7</ele>
        <time>2021-11-28T07:49:54Z</time>
      </trkpt>
      <trkpt lat="37.243144" lon="-3.373200">
        <ele>1257.5</ele>
        <time>2021-11-28T07:50:16Z</time>
      </trkpt>
      <trkpt lat="37.243190" lon="-3.373442">
        <ele>1258.5</ele>
        <time>2021-11-28T07:50:39Z</time>
      </trkpt>
      <trkpt lat="37.243334" lon="-3.373582">
        <ele>1258.5</ele>
        <time>2021-11-28T07:51:06Z</time>
      </trkpt>
      <trkpt lat="37.243499" lon="-3.373713">
        <ele>1258.5</ele>
        <time>2021-11-28T07:51:24Z</time>
      </trkpt>
      <trkpt lat="37.243636" lon="-3.373886">
        <ele>1260.4</ele>
        <time>2021-11-28T07:51:42Z</time>
      </trkpt>
      <trkpt lat="37.243733" lon="-3.374098">
        <ele>1262.3</ele>
        <time>2021-11-28T07:51:58Z</time>
      </trkpt>
      <trkpt lat="37.243827" lon="-3.374320">
        <ele>1263.3</ele>
        <time>2021-11-28T07:52:15Z</time>
      </trkpt>
      <trkpt lat="37.243892" lon="-3.374560">
        <ele>1265.2</ele>
        <time>2021-11-28T07:52:32Z</time>
      </trkpt>
      <trkpt lat="37.243966" lon="-3.374786">
        <ele>1267.6</ele>
        <time>2021-11-28T07:52:48Z</time>
      </trkpt>
      <trkpt lat="37.244052" lon="-3.375001">
        <ele>1269.1</ele>
        <time>2021-11-28T07:53:04Z</time>
      </trkpt>
      <trkpt lat="37.244150" lon="-3.375201">
        <ele>1270.0</ele>
        <time>2021-11-28T07:53:19Z</time>
      </trkpt>
      <trkpt lat="37.244271" lon="-3.375401">
        <ele>1270.5</ele>
        <time>2021-11-28T07:53:35Z</time>
      </trkpt>
      <trkpt lat="37.244386" lon="-3.375605">
        <ele>1271.0</ele>
        <time>2021-11-28T07:53:51Z</time>
      </trkpt>
      <trkpt lat="37.244468" lon="-3.375822">
        <ele>1273.9</ele>
        <time>2021-11-28T07:54:07Z</time>
      </trkpt>
      <trkpt lat="37.244519" lon="-3.376055">
        <ele>1275.3</ele>
        <time>2021-11-28T07:54:24Z</time>
      </trkpt>
      <trkpt lat="37.244618" lon="-3.376265">
        <ele>1275.8</ele>
        <time>2021-11-28T07:54:40Z</time>
      </trkpt>
      <trkpt lat="37.244732" lon="-3.376461">
        <ele>1275.8</ele>
        <time>2021-11-28T07:54:55Z</time>
      </trkpt>
      <trkpt lat="37.244846" lon="-3.376646">
        <ele>1276.3</ele>
        <time>2021-11-28T07:55:10Z</time>
      </trkpt>
      <trkpt lat="37.244982" lon="-3.376811">
        <ele>1275.8</ele>
        <time>2021-11-28T07:55:25Z</time>
      </trkpt>
      <trkpt lat="37.245139" lon="-3.376959">
        <ele>1276.3</ele>
        <time>2021-11-28T07:55:40Z</time>
      </trkpt>
      <trkpt lat="37.245318" lon="-3.377073">
        <ele>1276.3</ele>
        <time>2021-11-28T07:55:56Z</time>
      </trkpt>
      <trkpt lat="37.245508" lon="-3.377160">
        <ele>1276.8</ele>
        <time>2021-11-28T07:56:12Z</time>
      </trkpt>
      <trkpt lat="37.245701" lon="-3.377218">
        <ele>1278.7</ele>
        <time>2021-11-28T07:56:29Z</time>
      </trkpt>
      <trkpt lat="37.245903" lon="-3.377253">
        <ele>1279.2</ele>
        <time>2021-11-28T07:56:46Z</time>
      </trkpt>
      <trkpt lat="37.246103" lon="-3.377254">
        <ele>1281.6</ele>
        <time>2021-11-28T07:57:03Z</time>
      </trkpt>
      <trkpt lat="37.246298" lon="-3.377220">
        <ele>1283.5</ele>
        <time>2021-11-28T07:57:20Z</time>
      </trkpt>
      <trkpt lat="37.246482" lon="-3.377137">
        <ele>1283.5</ele>
        <time>2021-11-28T07:57:37Z</time>
      </trkpt>
      <trkpt lat="37.246675" lon="-3.377065">
        <ele>1283.5</ele>
        <time>2021-11-28T07:57:52Z</time>
      </trkpt>
      <trkpt lat="37.246831" lon="-3.376929">
        <ele>1285.9</ele>
        <time>2021-11-28T07:58:08Z</time>
      </trkpt>
      <trkpt lat="37.246998" lon="-3.376802">
        <ele>1286.4</ele>
        <time>2021-11-28T07:58:23Z</time>
      </trkpt>
      <trkpt lat="37.247147" lon="-3.376664">
        <ele>1286.4</ele>
        <time>2021-11-28T07:58:38Z</time>
      </trkpt>
      <trkpt lat="37.247320" lon="-3.376524">
        <ele>1287.3</ele>
        <time>2021-11-28T07:58:54Z</time>
      </trkpt>
      <trkpt lat="37.247481" lon="-3.376391">
        <ele>1287.8</ele>
        <time>2021-11-28T07:59:10Z</time>
      </trkpt>
      <trkpt lat="37.247639" lon="-3.376251">
        <ele>1286.4</ele>
        <time>2021-11-28T07:59:48Z</time>
      </trkpt>
      <trkpt lat="37.247792" lon="-3.376094">
        <ele>1285.9</ele>
        <time>2021-11-28T08:00:18Z</time>
      </trkpt>
      <trkpt lat="37.247962" lon="-3.375943">
        <ele>1286.4</ele>
        <time>2021-11-28T08:00:35Z</time>
      </trkpt>
      <trkpt lat="37.248149" lon="-3.375775">
        <ele>1287.3</ele>
        <time>2021-11-28T08:00:55Z</time>
      </trkpt>
      <trkpt lat="37.248431" lon="-3.375732">
        <ele>1287.8</ele>
        <time>2021-11-28T08:01:15Z</time>
      </trkpt>
      <trkpt lat="37.248647" lon="-3.375687">
        <ele>1288.8</ele>
        <time>2021-11-28T08:01:35Z</time>
      </trkpt>
      <trkpt lat="37.248850" lon="-3.375585">
        <ele>1290.7</ele>
        <time>2021-11-28T08:01:53Z</time>
      </trkpt>
      <trkpt lat="37.249049" lon="-3.375561">
        <ele>1289.3</ele>
        <time>2021-11-28T08:02:09Z</time>
      </trkpt>
      <trkpt lat="37.249256" lon="-3.375477">
        <ele>1289.3</ele>
        <time>2021-11-28T08:02:29Z</time>
      </trkpt>
      <trkpt lat="37.249451" lon="-3.375349">
        <ele>1290.2</ele>
        <time>2021-11-28T08:02:48Z</time>
      </trkpt>
      <trkpt lat="37.249627" lon="-3.375123">
        <ele>1293.1</ele>
        <time>2021-11-28T08:03:13Z</time>
      </trkpt>
      <trkpt lat="37.249617" lon="-3.374890">
        <ele>1295.5</ele>
        <time>2021-11-28T08:03:31Z</time>
      </trkpt>
      <trkpt lat="37.249491" lon="-3.374715">
        <ele>1295.0</ele>
        <time>2021-11-28T08:03:51Z</time>
      </trkpt>
      <trkpt lat="37.249343" lon="-3.374575">
        <ele>1297.0</ele>
        <time>2021-11-28T08:04:10Z</time>
      </trkpt>
      <trkpt lat="37.249272" lon="-3.374544">
        <ele>1298.4</ele>
        <time>2021-11-28T08:06:34Z</time>
      </trkpt>
      <trkpt lat="37.249378" lon="-3.374370">
        <ele>1298.9</ele>
        <time>2021-11-28T08:07:00Z</time>
      </trkpt>
      <trkpt lat="37.249370" lon="-3.374139">
        <ele>1301.8</ele>
        <time>2021-11-28T08:07:43Z</time>
      </trkpt>
      <trkpt lat="37.249387" lon="-3.373893">
        <ele>1305.6</ele>
        <time>2021-11-28T08:08:05Z</time>
      </trkpt>
      <trkpt lat="37.249475" lon="-3.373668">
        <ele>1307.0</ele>
        <time>2021-11-28T08:08:24Z</time>
      </trkpt>
      <trkpt lat="37.249567" lon="-3.373464">
        <ele>1309.5</ele>
        <time>2021-11-28T08:08:51Z</time>
      </trkpt>
      <trkpt lat="37.249682" lon="-3.373271">
        <ele>1310.4</ele>
        <time>2021-11-28T08:09:12Z</time>
      </trkpt>
      <trkpt lat="37.249688" lon="-3.373028">
        <ele>1312.3</ele>
        <time>2021-11-28T08:09:35Z</time>
      </trkpt>
      <trkpt lat="37.249658" lon="-3.372766">
        <ele>1313.3</ele>
        <time>2021-11-28T08:09:57Z</time>
      </trkpt>
      <trkpt lat="37.249637" lon="-3.372506">
        <ele>1314.7</ele>
        <time>2021-11-28T08:10:18Z</time>
      </trkpt>
      <trkpt lat="37.249726" lon="-3.372277">
        <ele>1316.2</ele>
        <time>2021-11-28T08:10:41Z</time>
      </trkpt>
      <trkpt lat="37.249838" lon="-3.372054">
        <ele>1319.5</ele>
        <time>2021-11-28T08:11:06Z</time>
      </trkpt>
      <trkpt lat="37.249973" lon="-3.371864">
        <ele>1321.9</ele>
        <time>2021-11-28T08:11:31Z</time>
      </trkpt>
      <trkpt lat="37.250068" lon="-3.371667">
        <ele>1322.4</ele>
        <time>2021-11-28T08:12:12Z</time>
      </trkpt>
      <trkpt lat="37.250201" lon="-3.371492">
        <ele>1324.4</ele>
        <time>2021-11-28T08:12:31Z</time>
      </trkpt>
      <trkpt lat="37.250347" lon="-3.371326">
        <ele>1327.2</ele>
        <time>2021-11-28T08:12:53Z</time>
      </trkpt>
      <trkpt lat="37.250428" lon="-3.371103">
        <ele>1328.2</ele>
        <time>2021-11-28T08:13:10Z</time>
      </trkpt>
      <trkpt lat="37.250493" lon="-3.370879">
        <ele>1329.6</ele>
        <time>2021-11-28T08:13:27Z</time>
      </trkpt>
      <trkpt lat="37.250611" lon="-3.370665">
        <ele>1330.6</ele>
        <time>2021-11-28T08:13:59Z</time>
      </trkpt>
      <trkpt lat="37.250650" lon="-3.370406">
        <ele>1332.0</ele>
        <time>2021-11-28T08:14:21Z</time>
      </trkpt>
      <trkpt lat="37.250745" lon="-3.370194">
        <ele>1332.5</ele>
        <time>2021-11-28T08:14:37Z</time>
      </trkpt>
      <trkpt lat="37.250759" lon="-3.369931">
        <ele>1335.9</ele>
        <time>2021-11-28T08:14:59Z</time>
      </trkpt>
      <trkpt lat="37.250688" lon="-3.369733">
        <ele>1338.3</ele>
        <time>2021-11-28T08:15:16Z</time>
      </trkpt>
      <trkpt lat="37.250565" lon="-3.369534">
        <ele>1339.3</ele>
        <time>2021-11-28T08:15:31Z</time>
      </trkpt>
      <trkpt lat="37.250449" lon="-3.369344">
        <ele>1340.7</ele>
        <time>2021-11-28T08:15:52Z</time>
      </trkpt>
      <trkpt lat="37.250369" lon="-3.369124">
        <ele>1340.7</ele>
        <time>2021-11-28T08:16:09Z</time>
      </trkpt>
      <trkpt lat="37.250248" lon="-3.368910">
        <ele>1342.6</ele>
        <time>2021-11-28T08:16:26Z</time>
      </trkpt>
      <trkpt lat="37.250068" lon="-3.368800">
        <ele>1344.1</ele>
        <time>2021-11-28T08:16:41Z</time>
      </trkpt>
      <trkpt lat="37.249864" lon="-3.368791">
        <ele>1346.9</ele>
        <time>2021-11-28T08:16:56Z</time>
      </trkpt>
      <trkpt lat="37.249655" lon="-3.368812">
        <ele>1345.5</ele>
        <time>2021-11-28T08:17:14Z</time>
      </trkpt>
      <trkpt lat="37.249463" lon="-3.368882">
        <ele>1345.5</ele>
        <time>2021-11-28T08:17:49Z</time>
      </trkpt>
      <trkpt lat="37.249258" lon="-3.368940">
        <ele>1345.0</ele>
        <time>2021-11-28T08:18:07Z</time>
      </trkpt>
      <trkpt lat="37.249047" lon="-3.369018">
        <ele>1345.5</ele>
        <time>2021-11-28T08:18:23Z</time>
      </trkpt>
      <trkpt lat="37.248854" lon="-3.369047">
        <ele>1346.0</ele>
        <time>2021-11-28T08:18:38Z</time>
      </trkpt>
      <trkpt lat="37.248653" lon="-3.369071">
        <ele>1346.9</ele>
        <time>2021-11-28T08:18:53Z</time>
      </trkpt>
      <trkpt lat="37.248457" lon="-3.369106">
        <ele>1347.4</ele>
        <time>2021-11-28T08:19:08Z</time>
      </trkpt>
      <trkpt lat="37.248257" lon="-3.369061">
        <ele>1347.4</ele>
        <time>2021-11-28T08:19:22Z</time>
      </trkpt>
      <trkpt lat="37.248044" lon="-3.368962">
        <ele>1348.9</ele>
        <time>2021-11-28T08:19:38Z</time>
      </trkpt>
      <trkpt lat="37.247879" lon="-3.368817">
        <ele>1348.9</ele>
        <time>2021-11-28T08:19:58Z</time>
      </trkpt>
      <trkpt lat="37.247624" lon="-3.368635">
        <ele>1352.2</ele>
        <time>2021-11-28T08:20:19Z</time>
      </trkpt>
      <trkpt lat="37.247446" lon="-3.368473">
        <ele>1353.2</ele>
        <time>2021-11-28T08:20:33Z</time>
      </trkpt>
      <trkpt lat="37.247279" lon="-3.368337">
        <ele>1354.6</ele>
        <time>2021-11-28T08:20:48Z</time>
      </trkpt>
      <trkpt lat="37.247091" lon="-3.368214">
        <ele>1355.1</ele>
        <time>2021-11-28T08:21:04Z</time>
      </trkpt>
      <trkpt lat="37.246919" lon="-3.368100">
        <ele>1356.6</ele>
        <time>2021-11-28T08:21:18Z</time>
      </trkpt>
      <trkpt lat="37.246768" lon="-3.367957">
        <ele>1358.0</ele>
        <time>2021-11-28T08:21:37Z</time>
      </trkpt>
      <trkpt lat="37.246600" lon="-3.368057">
        <ele>1358.5</ele>
        <time>2021-11-28T08:21:53Z</time>
      </trkpt>
      <trkpt lat="37.246473" lon="-3.368219">
        <ele>1358.0</ele>
        <time>2021-11-28T08:22:10Z</time>
      </trkpt>
      <trkpt lat="37.246452" lon="-3.368221">
        <ele>1358.0</ele>
        <time>2021-11-28T08:26:02Z</time>
      </trkpt>
      <trkpt lat="37.246582" lon="-3.367962">
        <ele>1358.5</ele>
        <time>2021-11-28T08:26:23Z</time>
      </trkpt>
      <trkpt lat="37.246669" lon="-3.367693">
        <ele>1359.4</ele>
        <time>2021-11-28T08:26:42Z</time>
      </trkpt>
      <trkpt lat="37.246759" lon="-3.367453">
        <ele>1361.4</ele>
        <time>2021-11-28T08:27:00Z</time>
      </trkpt>
      <trkpt lat="37.246910" lon="-3.367276">
        <ele>1362.3</ele>
        <time>2021-11-28T08:27:20Z</time>
      </trkpt>
      <trkpt lat="37.247033" lon="-3.367021">
        <ele>1363.3</ele>
        <time>2021-11-28T08:27:37Z</time>
      </trkpt>
      <trkpt lat="37.247096" lon="-3.366732">
        <ele>1364.7</ele>
        <time>2021-11-28T08:27:54Z</time>
      </trkpt>
      <trkpt lat="37.247207" lon="-3.366504">
        <ele>1365.2</ele>
        <time>2021-11-28T08:28:11Z</time>
      </trkpt>
      <trkpt lat="37.247393" lon="-3.366351">
        <ele>1365.2</ele>
        <time>2021-11-28T08:28:28Z</time>
      </trkpt>
      <trkpt lat="37.247582" lon="-3.366229">
        <ele>1366.7</ele>
        <time>2021-11-28T08:28:45Z</time>
      </trkpt>
      <trkpt lat="37.247786" lon="-3.366056">
        <ele>1367.6</ele>
        <time>2021-11-28T08:29:02Z</time>
      </trkpt>
      <trkpt lat="37.247957" lon="-3.365855">
        <ele>1369.1</ele>
        <time>2021-11-28T08:29:19Z</time>
      </trkpt>
      <trkpt lat="37.248126" lon="-3.365629">
        <ele>1369.5</ele>
        <time>2021-11-28T08:29:37Z</time>
      </trkpt>
      <trkpt lat="37.248295" lon="-3.365431">
        <ele>1370.5</ele>
        <time>2021-11-28T08:29:54Z</time>
      </trkpt>
      <trkpt lat="37.248466" lon="-3.365227">
        <ele>1370.5</ele>
        <time>2021-11-28T08:30:10Z</time>
      </trkpt>
      <trkpt lat="37.248585" lon="-3.365046">
        <ele>1372.9</ele>
        <time>2021-11-28T08:30:24Z</time>
      </trkpt>
      <trkpt lat="37.248685" lon="-3.364811">
        <ele>1373.9</ele>
        <time>2021-11-28T08:30:40Z</time>
      </trkpt>
      <trkpt lat="37.248726" lon="-3.364562">
        <ele>1373.9</ele>
        <time>2021-11-28T08:30:57Z</time>
      </trkpt>
      <trkpt lat="37.248747" lon="-3.364303">
        <ele>1374.3</ele>
        <time>2021-11-28T08:31:12Z</time>
      </trkpt>
      <trkpt lat="37.248860" lon="-3.364105">
        <ele>1376.3</ele>
        <time>2021-11-28T08:31:27Z</time>
      </trkpt>
      <trkpt lat="37.248976" lon="-3.363955">
        <ele>1377.2</ele>
        <time>2021-11-28T08:31:43Z</time>
      </trkpt>
      <trkpt lat="37.249147" lon="-3.363788">
        <ele>1378.2</ele>
        <time>2021-11-28T08:31:59Z</time>
      </trkpt>
      <trkpt lat="37.249295" lon="-3.363574">
        <ele>1378.2</ele>
        <time>2021-11-28T08:32:15Z</time>
      </trkpt>
      <trkpt lat="37.249410" lon="-3.363363">
        <ele>1380.1</ele>
        <time>2021-11-28T08:32:31Z</time>
      </trkpt>
      <trkpt lat="37.249513" lon="-3.363130">
        <ele>1381.6</ele>
        <time>2021-11-28T08:32:49Z</time>
      </trkpt>
      <trkpt lat="37.249665" lon="-3.362879">
        <ele>1382.5</ele>
        <time>2021-11-28T08:33:07Z</time>
      </trkpt>
      <trkpt lat="37.249867" lon="-3.362707">
        <ele>1384.0</ele>
        <time>2021-11-28T08:33:24Z</time>
      </trkpt>
      <trkpt lat="37.250018" lon="-3.362534">
        <ele>1385.4</ele>
        <time>2021-11-28T08:33:39Z</time>
      </trkpt>
      <trkpt lat="37.250131" lon="-3.362333">
        <ele>1385.4</ele>
        <time>2021-11-28T08:33:53Z</time>
      </trkpt>
      <trkpt lat="37.250218" lon="-3.362101">
        <ele>1386.4</ele>
        <time>2021-11-28T08:34:08Z</time>
      </trkpt>
      <trkpt lat="37.250315" lon="-3.361893">
        <ele>1387.8</ele>
        <time>2021-11-28T08:34:22Z</time>
      </trkpt>
      <trkpt lat="37.250389" lon="-3.361661">
        <ele>1388.8</ele>
        <time>2021-11-28T08:34:37Z</time>
      </trkpt>
      <trkpt lat="37.250405" lon="-3.361425">
        <ele>1390.2</ele>
        <time>2021-11-28T08:34:51Z</time>
      </trkpt>
      <trkpt lat="37.250429" lon="-3.361175">
        <ele>1390.7</ele>
        <time>2021-11-28T08:35:06Z</time>
      </trkpt>
      <trkpt lat="37.250520" lon="-3.360951">
        <ele>1392.1</ele>
        <time>2021-11-28T08:35:21Z</time>
      </trkpt>
      <trkpt lat="37.250686" lon="-3.360790">
        <ele>1393.1</ele>
        <time>2021-11-28T08:35:37Z</time>
      </trkpt>
      <trkpt lat="37.250882" lon="-3.360819">
        <ele>1394.0</ele>
        <time>2021-11-28T08:35:53Z</time>
      </trkpt>
      <trkpt lat="37.251081" lon="-3.360911">
        <ele>1395.5</ele>
        <time>2021-11-28T08:36:08Z</time>
      </trkpt>
      <trkpt lat="37.251266" lon="-3.360903">
        <ele>1396.0</ele>
        <time>2021-11-28T08:36:30Z</time>
      </trkpt>
      <trkpt lat="37.251435" lon="-3.360818">
        <ele>1396.5</ele>
        <time>2021-11-28T08:37:05Z</time>
      </trkpt>
      <trkpt lat="37.251564" lon="-3.360633">
        <ele>1397.4</ele>
        <time>2021-11-28T08:37:20Z</time>
      </trkpt>
      <trkpt lat="37.251677" lon="-3.360435">
        <ele>1398.9</ele>
        <time>2021-11-28T08:37:35Z</time>
      </trkpt>
      <trkpt lat="37.251776" lon="-3.360215">
        <ele>1400.3</ele>
        <time>2021-11-28T08:37:50Z</time>
      </trkpt>
      <trkpt lat="37.251887" lon="-3.360017">
        <ele>1400.8</ele>
        <time>2021-11-28T08:38:04Z</time>
      </trkpt>
      <trkpt lat="37.252005" lon="-3.359813">
        <ele>1401.7</ele>
        <time>2021-11-28T08:38:19Z</time>
      </trkpt>
      <trkpt lat="37.252115" lon="-3.359603">
        <ele>1402.7</ele>
        <time>2021-11-28T08:38:35Z</time>
      </trkpt>
      <trkpt lat="37.252158" lon="-3.359371">
        <ele>1404.1</ele>
        <time>2021-11-28T08:38:52Z</time>
      </trkpt>
      <trkpt lat="37.252043" lon="-3.359089">
        <ele>1404.6</ele>
        <time>2021-11-28T08:39:11Z</time>
      </trkpt>
      <trkpt lat="37.251985" lon="-3.358823">
        <ele>1405.6</ele>
        <time>2021-11-28T08:39:28Z</time>
      </trkpt>
      <trkpt lat="37.252117" lon="-3.358634">
        <ele>1406.1</ele>
        <time>2021-11-28T08:39:45Z</time>
      </trkpt>
      <trkpt lat="37.252286" lon="-3.358480">
        <ele>1407.0</ele>
        <time>2021-11-28T08:40:04Z</time>
      </trkpt>
      <trkpt lat="37.252436" lon="-3.358303">
        <ele>1407.5</ele>
        <time>2021-11-28T08:40:22Z</time>
      </trkpt>
      <trkpt lat="37.252568" lon="-3.358163">
        <ele>1408.5</ele>
        <time>2021-11-28T08:41:08Z</time>
      </trkpt>
      <trkpt lat="37.252709" lon="-3.357985">
        <ele>1409.4</ele>
        <time>2021-11-28T08:41:24Z</time>
      </trkpt>
      <trkpt lat="37.252872" lon="-3.357800">
        <ele>1409.9</ele>
        <time>2021-11-28T08:41:39Z</time>
      </trkpt>
      <trkpt lat="37.253006" lon="-3.357613">
        <ele>1410.9</ele>
        <time>2021-11-28T08:41:55Z</time>
      </trkpt>
      <trkpt lat="37.253157" lon="-3.357463">
        <ele>1411.4</ele>
        <time>2021-11-28T08:42:10Z</time>
      </trkpt>
      <trkpt lat="37.253299" lon="-3.357300">
        <ele>1412.3</ele>
        <time>2021-11-28T08:42:26Z</time>
      </trkpt>
      <trkpt lat="37.253405" lon="-3.357069">
        <ele>1412.3</ele>
        <time>2021-11-28T08:42:41Z</time>
      </trkpt>
      <trkpt lat="37.253489" lon="-3.356862">
        <ele>1412.8</ele>
        <time>2021-11-28T08:43:16Z</time>
      </trkpt>
      <trkpt lat="37.253571" lon="-3.356650">
        <ele>1413.8</ele>
        <time>2021-11-28T08:43:31Z</time>
      </trkpt>
      <trkpt lat="37.253630" lon="-3.356408">
        <ele>1413.3</ele>
        <time>2021-11-28T08:43:47Z</time>
      </trkpt>
      <trkpt lat="37.253710" lon="-3.356156">
        <ele>1413.8</ele>
        <time>2021-11-28T08:44:03Z</time>
      </trkpt>
      <trkpt lat="37.253778" lon="-3.355923">
        <ele>1414.7</ele>
        <time>2021-11-28T08:44:20Z</time>
      </trkpt>
      <trkpt lat="37.253867" lon="-3.355674">
        <ele>1415.2</ele>
        <time>2021-11-28T08:44:38Z</time>
      </trkpt>
      <trkpt lat="37.253922" lon="-3.355389">
        <ele>1415.7</ele>
        <time>2021-11-28T08:44:54Z</time>
      </trkpt>
      <trkpt lat="37.253962" lon="-3.355141">
        <ele>1416.6</ele>
        <time>2021-11-28T08:45:11Z</time>
      </trkpt>
      <trkpt lat="37.253932" lon="-3.354842">
        <ele>1418.1</ele>
        <time>2021-11-28T08:45:31Z</time>
      </trkpt>
      <trkpt lat="37.253942" lon="-3.354503">
        <ele>1419.0</ele>
        <time>2021-11-28T08:45:50Z</time>
      </trkpt>
      <trkpt lat="37.253940" lon="-3.354233">
        <ele>1420.0</ele>
        <time>2021-11-28T08:46:05Z</time>
      </trkpt>
      <trkpt lat="37.253965" lon="-3.353990">
        <ele>1421.0</ele>
        <time>2021-11-28T08:46:27Z</time>
      </trkpt>
      <trkpt lat="37.253987" lon="-3.353734">
        <ele>1421.9</ele>
        <time>2021-11-28T08:46:43Z</time>
      </trkpt>
      <trkpt lat="37.253973" lon="-3.353491">
        <ele>1422.4</ele>
        <time>2021-11-28T08:46:57Z</time>
      </trkpt>
      <trkpt lat="37.253904" lon="-3.353265">
        <ele>1423.4</ele>
        <time>2021-11-28T08:47:12Z</time>
      </trkpt>
      <trkpt lat="37.253809" lon="-3.353042">
        <ele>1424.3</ele>
        <time>2021-11-28T08:48:32Z</time>
      </trkpt>
      <trkpt lat="37.253771" lon="-3.352843">
        <ele>1425.3</ele>
        <time>2021-11-28T08:49:34Z</time>
      </trkpt>
      <trkpt lat="37.253821" lon="-3.352591">
        <ele>1427.7</ele>
        <time>2021-11-28T08:50:02Z</time>
      </trkpt>
      <trkpt lat="37.253815" lon="-3.352357">
        <ele>1430.1</ele>
        <time>2021-11-28T08:50:20Z</time>
      </trkpt>
      <trkpt lat="37.253741" lon="-3.352076">
        <ele>1432.0</ele>
        <time>2021-11-28T08:50:40Z</time>
      </trkpt>
      <trkpt lat="37.253794" lon="-3.351817">
        <ele>1432.0</ele>
        <time>2021-11-28T08:50:57Z</time>
      </trkpt>
      <trkpt lat="37.253930" lon="-3.351632">
        <ele>1433.9</ele>
        <time>2021-11-28T08:51:21Z</time>
      </trkpt>
      <trkpt lat="37.254034" lon="-3.351394">
        <ele>1434.4</ele>
        <time>2021-11-28T08:51:37Z</time>
      </trkpt>
      <trkpt lat="37.254218" lon="-3.351203">
        <ele>1435.4</ele>
        <time>2021-11-28T08:51:55Z</time>
      </trkpt>
      <trkpt lat="37.254352" lon="-3.351004">
        <ele>1437.8</ele>
        <time>2021-11-28T08:52:13Z</time>
      </trkpt>
      <trkpt lat="37.254387" lon="-3.350720">
        <ele>1439.7</ele>
        <time>2021-11-28T08:52:35Z</time>
      </trkpt>
      <trkpt lat="37.254327" lon="-3.350451">
        <ele>1442.1</ele>
        <time>2021-11-28T08:52:52Z</time>
      </trkpt>
      <trkpt lat="37.254369" lon="-3.350182">
        <ele>1443.1</ele>
        <time>2021-11-28T08:54:04Z</time>
      </trkpt>
      <trkpt lat="37.254218" lon="-3.349988">
        <ele>1445.5</ele>
        <time>2021-11-28T08:54:27Z</time>
      </trkpt>
      <trkpt lat="37.254108" lon="-3.349768">
        <ele>1447.4</ele>
        <time>2021-11-28T08:54:44Z</time>
      </trkpt>
      <trkpt lat="37.254084" lon="-3.349543">
        <ele>1447.4</ele>
        <time>2021-11-28T08:55:00Z</time>
      </trkpt>
      <trkpt lat="37.254093" lon="-3.349361">
        <ele>1448.8</ele>
        <time>2021-11-28T08:56:04Z</time>
      </trkpt>
      <trkpt lat="37.253978" lon="-3.349096">
        <ele>1449.3</ele>
        <time>2021-11-28T08:56:23Z</time>
      </trkpt>
      <trkpt lat="37.253920" lon="-3.348837">
        <ele>1452.2</ele>
        <time>2021-11-28T08:56:39Z</time>
      </trkpt>
      <trkpt lat="37.253801" lon="-3.348582">
        <ele>1454.6</ele>
        <time>2021-11-28T08:56:57Z</time>
      </trkpt>
      <trkpt lat="37.253681" lon="-3.348344">
        <ele>1455.6</ele>
        <time>2021-11-28T08:57:15Z</time>
      </trkpt>
      <trkpt lat="37.253558" lon="-3.348090">
        <ele>1456.5</ele>
        <time>2021-11-28T08:57:35Z</time>
      </trkpt>
      <trkpt lat="37.253388" lon="-3.347868">
        <ele>1457.5</ele>
        <time>2021-11-28T08:57:54Z</time>
      </trkpt>
      <trkpt lat="37.253172" lon="-3.347778">
        <ele>1460.4</ele>
        <time>2021-11-28T08:58:12Z</time>
      </trkpt>
      <trkpt lat="37.252948" lon="-3.347752">
        <ele>1462.3</ele>
        <time>2021-11-28T08:58:29Z</time>
      </trkpt>
      <trkpt lat="37.252746" lon="-3.347805">
        <ele>1465.2</ele>
        <time>2021-11-28T08:58:46Z</time>
      </trkpt>
      <trkpt lat="37.252554" lon="-3.347720">
        <ele>1466.6</ele>
        <time>2021-11-28T08:59:04Z</time>
      </trkpt>
      <trkpt lat="37.252318" lon="-3.347573">
        <ele>1469.5</ele>
        <time>2021-11-28T08:59:22Z</time>
      </trkpt>
      <trkpt lat="37.252182" lon="-3.347404">
        <ele>1470.5</ele>
        <time>2021-11-28T08:59:38Z</time>
      </trkpt>
      <trkpt lat="37.252201" lon="-3.347153">
        <ele>1472.9</ele>
        <time>2021-11-28T08:59:57Z</time>
      </trkpt>
      <trkpt lat="37.252261" lon="-3.346945">
        <ele>1474.8</ele>
        <time>2021-11-28T09:00:13Z</time>
      </trkpt>
      <trkpt lat="37.252263" lon="-3.346687">
        <ele>1476.7</ele>
        <time>2021-11-28T09:00:29Z</time>
      </trkpt>
      <trkpt lat="37.252156" lon="-3.346491">
        <ele>1476.7</ele>
        <time>2021-11-28T09:00:46Z</time>
      </trkpt>
      <trkpt lat="37.252142" lon="-3.346215">
        <ele>1479.1</ele>
        <time>2021-11-28T09:01:09Z</time>
      </trkpt>
      <trkpt lat="37.252243" lon="-3.346011">
        <ele>1481.0</ele>
        <time>2021-11-28T09:01:31Z</time>
      </trkpt>
      <trkpt lat="37.252305" lon="-3.345789">
        <ele>1483.0</ele>
        <time>2021-11-28T09:01:50Z</time>
      </trkpt>
      <trkpt lat="37.252297" lon="-3.345540">
        <ele>1482.5</ele>
        <time>2021-11-28T09:02:06Z</time>
      </trkpt>
      <trkpt lat="37.252261" lon="-3.345301">
        <ele>1483.5</ele>
        <time>2021-11-28T09:02:21Z</time>
      </trkpt>
      <trkpt lat="37.252233" lon="-3.345059">
        <ele>1487.3</ele>
        <time>2021-11-28T09:02:36Z</time>
      </trkpt>
      <trkpt lat="37.252097" lon="-3.344857">
        <ele>1489.2</ele>
        <time>2021-11-28T09:02:55Z</time>
      </trkpt>
      <trkpt lat="37.252090" lon="-3.344588">
        <ele>1490.7</ele>
        <time>2021-11-28T09:03:11Z</time>
      </trkpt>
      <trkpt lat="37.252113" lon="-3.344340">
        <ele>1490.2</ele>
        <time>2021-11-28T09:03:28Z</time>
      </trkpt>
      <trkpt lat="37.252138" lon="-3.344076">
        <ele>1491.6</ele>
        <time>2021-11-28T09:03:45Z</time>
      </trkpt>
      <trkpt lat="37.252143" lon="-3.343810">
        <ele>1491.6</ele>
        <time>2021-11-28T09:04:02Z</time>
      </trkpt>
      <trkpt lat="37.252098" lon="-3.343552">
        <ele>1495.9</ele>
        <time>2021-11-28T09:04:20Z</time>
      </trkpt>
      <trkpt lat="37.252044" lon="-3.343267">
        <ele>1497.9</ele>
        <time>2021-11-28T09:04:39Z</time>
      </trkpt>
      <trkpt lat="37.252095" lon="-3.343002">
        <ele>1500.3</ele>
        <time>2021-11-28T09:04:58Z</time>
      </trkpt>
      <trkpt lat="37.252276" lon="-3.342934">
        <ele>1501.7</ele>
        <time>2021-11-28T09:05:14Z</time>
      </trkpt>
      <trkpt lat="37.252483" lon="-3.342917">
        <ele>1502.2</ele>
        <time>2021-11-28T09:05:32Z</time>
      </trkpt>
      <trkpt lat="37.252675" lon="-3.342874">
        <ele>1502.7</ele>
        <time>2021-11-28T09:05:49Z</time>
      </trkpt>
      <trkpt lat="37.252688" lon="-3.342916">
        <ele>1503.2</ele>
        <time>2021-11-28T09:07:09Z</time>
      </trkpt>
      <trkpt lat="37.252864" lon="-3.342823">
        <ele>1504.1</ele>
        <time>2021-11-28T09:07:51Z</time>
      </trkpt>
      <trkpt lat="37.253019" lon="-3.342693">
        <ele>1506.0</ele>
        <time>2021-11-28T09:08:10Z</time>
      </trkpt>
      <trkpt lat="37.253136" lon="-3.342582">
        <ele>1508.4</ele>
        <time>2021-11-28T09:08:59Z</time>
      </trkpt>
      <trkpt lat="37.253305" lon="-3.342628">
        <ele>1514.7</ele>
        <time>2021-11-28T09:09:36Z</time>
      </trkpt>
      <trkpt lat="37.253474" lon="-3.342754">
        <ele>1516.6</ele>
        <time>2021-11-28T09:10:06Z</time>
      </trkpt>
      <trkpt lat="37.253678" lon="-3.342803">
        <ele>1517.6</ele>
        <time>2021-11-28T09:10:33Z</time>
      </trkpt>
      <trkpt lat="37.253822" lon="-3.342746">
        <ele>1522.4</ele>
        <time>2021-11-28T09:11:47Z</time>
      </trkpt>
      <trkpt lat="37.253972" lon="-3.342710">
        <ele>1524.8</ele>
        <time>2021-11-28T09:12:19Z</time>
      </trkpt>
      <trkpt lat="37.254135" lon="-3.342687">
        <ele>1529.6</ele>
        <time>2021-11-28T09:12:43Z</time>
      </trkpt>
      <trkpt lat="37.254301" lon="-3.342640">
        <ele>1533.0</ele>
        <time>2021-11-28T09:13:06Z</time>
      </trkpt>
      <trkpt lat="37.254460" lon="-3.342556">
        <ele>1537.3</ele>
        <time>2021-11-28T09:13:30Z</time>
      </trkpt>
      <trkpt lat="37.254625" lon="-3.342542">
        <ele>1536.8</ele>
        <time>2021-11-28T09:14:29Z</time>
      </trkpt>
      <trkpt lat="37.254628" lon="-3.342546">
        <ele>1535.8</ele>
        <time>2021-11-28T09:24:37Z</time>
      </trkpt>
      <trkpt lat="37.254623" lon="-3.342628">
        <ele>1534.9</ele>
        <time>2021-11-28T09:28:04Z</time>
      </trkpt>
      <trkpt lat="37.254500" lon="-3.342555">
        <ele>1535.8</ele>
        <time>2021-11-28T09:30:31Z</time>
      </trkpt>
      <trkpt lat="37.254343" lon="-3.342632">
        <ele>1533.0</ele>
        <time>2021-11-28T09:31:08Z</time>
      </trkpt>
      <trkpt lat="37.254216" lon="-3.342721">
        <ele>1528.2</ele>
        <time>2021-11-28T09:31:36Z</time>
      </trkpt>
      <trkpt lat="37.254025" lon="-3.342746">
        <ele>1524.8</ele>
        <time>2021-11-28T09:31:56Z</time>
      </trkpt>
      <trkpt lat="37.253848" lon="-3.342725">
        <ele>1521.4</ele>
        <time>2021-11-28T09:32:19Z</time>
      </trkpt>
      <trkpt lat="37.253698" lon="-3.342807">
        <ele>1518.1</ele>
        <time>2021-11-28T09:32:47Z</time>
      </trkpt>
      <trkpt lat="37.253516" lon="-3.342780">
        <ele>1514.7</ele>
        <time>2021-11-28T09:33:08Z</time>
      </trkpt>
      <trkpt lat="37.253343" lon="-3.342698">
        <ele>1512.3</ele>
        <time>2021-11-28T09:33:36Z</time>
      </trkpt>
      <trkpt lat="37.253142" lon="-3.342761">
        <ele>1507.0</ele>
        <time>2021-11-28T09:34:01Z</time>
      </trkpt>
      <trkpt lat="37.253055" lon="-3.342560">
        <ele>1507.0</ele>
        <time>2021-11-28T09:34:22Z</time>
      </trkpt>
      <trkpt lat="37.252984" lon="-3.342411">
        <ele>1507.0</ele>
        <time>2021-11-28T09:36:09Z</time>
      </trkpt>
      <trkpt lat="37.252903" lon="-3.342199">
        <ele>1508.9</ele>
        <time>2021-11-28T09:36:34Z</time>
      </trkpt>
      <trkpt lat="37.252796" lon="-3.342007">
        <ele>1511.3</ele>
        <time>2021-11-28T09:36:59Z</time>
      </trkpt>
      <trkpt lat="37.252665" lon="-3.341817">
        <ele>1512.8</ele>
        <time>2021-11-28T09:37:39Z</time>
      </trkpt>
      <trkpt lat="37.252525" lon="-3.341646">
        <ele>1513.3</ele>
        <time>2021-11-28T09:37:55Z</time>
      </trkpt>
      <trkpt lat="37.252340" lon="-3.341556">
        <ele>1513.7</ele>
        <time>2021-11-28T09:38:11Z</time>
      </trkpt>
      <trkpt lat="37.252154" lon="-3.341635">
        <ele>1514.7</ele>
        <time>2021-11-28T09:38:27Z</time>
      </trkpt>
      <trkpt lat="37.251976" lon="-3.341742">
        <ele>1514.7</ele>
        <time>2021-11-28T09:38:41Z</time>
      </trkpt>
      <trkpt lat="37.251790" lon="-3.341706">
        <ele>1516.1</ele>
        <time>2021-11-28T09:38:55Z</time>
      </trkpt>
      <trkpt lat="37.251628" lon="-3.341583">
        <ele>1517.6</ele>
        <time>2021-11-28T09:39:10Z</time>
      </trkpt>
      <trkpt lat="37.251521" lon="-3.341389">
        <ele>1519.5</ele>
        <time>2021-11-28T09:39:25Z</time>
      </trkpt>
      <trkpt lat="37.251398" lon="-3.341220">
        <ele>1520.5</ele>
        <time>2021-11-28T09:39:40Z</time>
      </trkpt>
      <trkpt lat="37.251242" lon="-3.341084">
        <ele>1521.4</ele>
        <time>2021-11-28T09:40:00Z</time>
      </trkpt>
      <trkpt lat="37.251116" lon="-3.340899">
        <ele>1521.9</ele>
        <time>2021-11-28T09:40:14Z</time>
      </trkpt>
      <trkpt lat="37.251013" lon="-3.340698">
        <ele>1522.4</ele>
        <time>2021-11-28T09:40:29Z</time>
      </trkpt>
      <trkpt lat="37.250892" lon="-3.340545">
        <ele>1523.3</ele>
        <time>2021-11-28T09:41:07Z</time>
      </trkpt>
      <trkpt lat="37.250653" lon="-3.340447">
        <ele>1525.7</ele>
        <time>2021-11-28T09:41:27Z</time>
      </trkpt>
      <trkpt lat="37.250455" lon="-3.340516">
        <ele>1527.7</ele>
        <time>2021-11-28T09:41:44Z</time>
      </trkpt>
      <trkpt lat="37.250264" lon="-3.340638">
        <ele>1528.6</ele>
        <time>2021-11-28T09:41:59Z</time>
      </trkpt>
      <trkpt lat="37.250076" lon="-3.340640">
        <ele>1530.1</ele>
        <time>2021-11-28T09:42:13Z</time>
      </trkpt>
      <trkpt lat="37.249901" lon="-3.340535">
        <ele>1531.5</ele>
        <time>2021-11-28T09:42:28Z</time>
      </trkpt>
      <trkpt lat="37.249764" lon="-3.340359">
        <ele>1533.4</ele>
        <time>2021-11-28T09:42:49Z</time>
      </trkpt>
      <trkpt lat="37.249623" lon="-3.340201">
        <ele>1534.4</ele>
        <time>2021-11-28T09:43:05Z</time>
      </trkpt>
      <trkpt lat="37.249494" lon="-3.340013">
        <ele>1534.4</ele>
        <time>2021-11-28T09:43:32Z</time>
      </trkpt>
      <trkpt lat="37.249393" lon="-3.339806">
        <ele>1535.8</ele>
        <time>2021-11-28T09:43:48Z</time>
      </trkpt>
      <trkpt lat="37.249337" lon="-3.339567">
        <ele>1535.8</ele>
        <time>2021-11-28T09:44:03Z</time>
      </trkpt>
      <trkpt lat="37.249280" lon="-3.339317">
        <ele>1537.8</ele>
        <time>2021-11-28T09:44:19Z</time>
      </trkpt>
      <trkpt lat="37.249134" lon="-3.339153">
        <ele>1537.3</ele>
        <time>2021-11-28T09:44:34Z</time>
      </trkpt>
      <trkpt lat="37.248922" lon="-3.339082">
        <ele>1538.2</ele>
        <time>2021-11-28T09:44:49Z</time>
      </trkpt>
      <trkpt lat="37.248726" lon="-3.339030">
        <ele>1540.2</ele>
        <time>2021-11-28T09:45:03Z</time>
      </trkpt>
      <trkpt lat="37.248557" lon="-3.338925">
        <ele>1540.2</ele>
        <time>2021-11-28T09:45:17Z</time>
      </trkpt>
      <trkpt lat="37.248450" lon="-3.338705">
        <ele>1540.2</ele>
        <time>2021-11-28T09:45:35Z</time>
      </trkpt>
      <trkpt lat="37.248367" lon="-3.338481">
        <ele>1540.6</ele>
        <time>2021-11-28T09:45:49Z</time>
      </trkpt>
      <trkpt lat="37.248245" lon="-3.338297">
        <ele>1541.1</ele>
        <time>2021-11-28T09:46:03Z</time>
      </trkpt>
      <trkpt lat="37.248082" lon="-3.338179">
        <ele>1541.1</ele>
        <time>2021-11-28T09:46:17Z</time>
      </trkpt>
      <trkpt lat="37.247918" lon="-3.338048">
        <ele>1540.2</ele>
        <time>2021-11-28T09:46:31Z</time>
      </trkpt>
      <trkpt lat="37.247749" lon="-3.337862">
        <ele>1539.7</ele>
        <time>2021-11-28T09:46:47Z</time>
      </trkpt>
      <trkpt lat="37.247620" lon="-3.337694">
        <ele>1539.7</ele>
        <time>2021-11-28T09:47:11Z</time>
      </trkpt>
      <trkpt lat="37.247537" lon="-3.337485">
        <ele>1539.7</ele>
        <time>2021-11-28T09:47:25Z</time>
      </trkpt>
      <trkpt lat="37.247404" lon="-3.337316">
        <ele>1539.7</ele>
        <time>2021-11-28T09:47:39Z</time>
      </trkpt>
      <trkpt lat="37.247250" lon="-3.337172">
        <ele>1539.7</ele>
        <time>2021-11-28T09:47:53Z</time>
      </trkpt>
      <trkpt lat="37.247106" lon="-3.337000">
        <ele>1539.2</ele>
        <time>2021-11-28T09:48:12Z</time>
      </trkpt>
      <trkpt lat="37.246955" lon="-3.336832">
        <ele>1539.7</ele>
        <time>2021-11-28T09:48:30Z</time>
      </trkpt>
      <trkpt lat="37.246957" lon="-3.336646">
        <ele>1536.3</ele>
        <time>2021-11-28T09:49:00Z</time>
      </trkpt>
      <trkpt lat="37.246904" lon="-3.336424">
        <ele>1535.8</ele>
        <time>2021-11-28T09:49:35Z</time>
      </trkpt>
      <trkpt lat="37.246979" lon="-3.336217">
        <ele>1534.4</ele>
        <time>2021-11-28T09:50:23Z</time>
      </trkpt>
      <trkpt lat="37.247061" lon="-3.336221">
        <ele>1534.9</ele>
        <time>2021-11-28T09:54:05Z</time>
      </trkpt>
      <trkpt lat="37.247118" lon="-3.336121">
        <ele>1533.9</ele>
        <time>2021-11-28T09:55:32Z</time>
      </trkpt>
      <trkpt lat="37.247230" lon="-3.335884">
        <ele>1533.9</ele>
        <time>2021-11-28T09:56:14Z</time>
      </trkpt>
      <trkpt lat="37.247156" lon="-3.335630">
        <ele>1533.9</ele>
        <time>2021-11-28T09:56:47Z</time>
      </trkpt>
      <trkpt lat="37.247066" lon="-3.335389">
        <ele>1536.8</ele>
        <time>2021-11-28T09:57:13Z</time>
      </trkpt>
      <trkpt lat="37.246939" lon="-3.335217">
        <ele>1538.7</ele>
        <time>2021-11-28T09:58:02Z</time>
      </trkpt>
      <trkpt lat="37.246849" lon="-3.335082">
        <ele>1541.6</ele>
        <time>2021-11-28T09:58:28Z</time>
      </trkpt>
      <trkpt lat="37.246896" lon="-3.334792">
        <ele>1545.9</ele>
        <time>2021-11-28T09:58:55Z</time>
      </trkpt>
      <trkpt lat="37.246903" lon="-3.334556">
        <ele>1547.4</ele>
        <time>2021-11-28T09:59:15Z</time>
      </trkpt>
      <trkpt lat="37.246927" lon="-3.334323">
        <ele>1549.3</ele>
        <time>2021-11-28T09:59:30Z</time>
      </trkpt>
      <trkpt lat="37.246925" lon="-3.334033">
        <ele>1549.3</ele>
        <time>2021-11-28T09:59:49Z</time>
      </trkpt>
      <trkpt lat="37.246929" lon="-3.333780">
        <ele>1550.7</ele>
        <time>2021-11-28T10:00:09Z</time>
      </trkpt>
      <trkpt lat="37.246958" lon="-3.333553">
        <ele>1550.3</ele>
        <time>2021-11-28T10:00:23Z</time>
      </trkpt>
      <trkpt lat="37.246966" lon="-3.333325">
        <ele>1552.7</ele>
        <time>2021-11-28T10:00:37Z</time>
      </trkpt>
      <trkpt lat="37.246947" lon="-3.333083">
        <ele>1553.6</ele>
        <time>2021-11-28T10:00:51Z</time>
      </trkpt>
      <trkpt lat="37.246957" lon="-3.332815">
        <ele>1553.1</ele>
        <time>2021-11-28T10:01:08Z</time>
      </trkpt>
      <trkpt lat="37.247078" lon="-3.332513">
        <ele>1554.1</ele>
        <time>2021-11-28T10:01:27Z</time>
      </trkpt>
      <trkpt lat="37.247183" lon="-3.332233">
        <ele>1555.1</ele>
        <time>2021-11-28T10:01:45Z</time>
      </trkpt>
      <trkpt lat="37.247310" lon="-3.332030">
        <ele>1555.6</ele>
        <time>2021-11-28T10:01:58Z</time>
      </trkpt>
      <trkpt lat="37.247453" lon="-3.331888">
        <ele>1558.0</ele>
        <time>2021-11-28T10:02:17Z</time>
      </trkpt>
      <trkpt lat="37.247602" lon="-3.331738">
        <ele>1559.4</ele>
        <time>2021-11-28T10:02:31Z</time>
      </trkpt>
      <trkpt lat="37.247734" lon="-3.331564">
        <ele>1558.0</ele>
        <time>2021-11-28T10:02:46Z</time>
      </trkpt>
      <trkpt lat="37.247803" lon="-3.331332">
        <ele>1554.1</ele>
        <time>2021-11-28T10:03:02Z</time>
      </trkpt>
      <trkpt lat="37.247920" lon="-3.331063">
        <ele>1552.7</ele>
        <time>2021-11-28T10:03:19Z</time>
      </trkpt>
      <trkpt lat="37.248063" lon="-3.330812">
        <ele>1551.2</ele>
        <time>2021-11-28T10:03:35Z</time>
      </trkpt>
      <trkpt lat="37.248282" lon="-3.330727">
        <ele>1550.7</ele>
        <time>2021-11-28T10:03:50Z</time>
      </trkpt>
      <trkpt lat="37.248494" lon="-3.330740">
        <ele>1549.8</ele>
        <time>2021-11-28T10:04:07Z</time>
      </trkpt>
      <trkpt lat="37.248711" lon="-3.330799">
        <ele>1550.7</ele>
        <time>2021-11-28T10:04:24Z</time>
      </trkpt>
      <trkpt lat="37.248908" lon="-3.330825">
        <ele>1548.8</ele>
        <time>2021-11-28T10:04:41Z</time>
      </trkpt>
      <trkpt lat="37.249177" lon="-3.330896">
        <ele>1549.3</ele>
        <time>2021-11-28T10:05:10Z</time>
      </trkpt>
      <trkpt lat="37.249418" lon="-3.330841">
        <ele>1551.2</ele>
        <time>2021-11-28T10:05:26Z</time>
      </trkpt>
      <trkpt lat="37.249626" lon="-3.330780">
        <ele>1550.7</ele>
        <time>2021-11-28T10:05:42Z</time>
      </trkpt>
      <trkpt lat="37.249815" lon="-3.330709">
        <ele>1551.2</ele>
        <time>2021-11-28T10:05:59Z</time>
      </trkpt>
      <trkpt lat="37.249986" lon="-3.330624">
        <ele>1550.3</ele>
        <time>2021-11-28T10:06:14Z</time>
      </trkpt>
      <trkpt lat="37.250035" lon="-3.330549">
        <ele>1549.3</ele>
        <time>2021-11-28T10:07:47Z</time>
      </trkpt>
      <trkpt lat="37.250083" lon="-3.330416">
        <ele>1547.4</ele>
        <time>2021-11-28T10:09:01Z</time>
      </trkpt>
      <trkpt lat="37.250092" lon="-3.330170">
        <ele>1546.4</ele>
        <time>2021-11-28T10:09:16Z</time>
      </trkpt>
      <trkpt lat="37.250121" lon="-3.329913">
        <ele>1545.0</ele>
        <time>2021-11-28T10:09:33Z</time>
      </trkpt>
      <trkpt lat="37.250182" lon="-3.329638">
        <ele>1543.5</ele>
        <time>2021-11-28T10:09:49Z</time>
      </trkpt>
      <trkpt lat="37.250287" lon="-3.329365">
        <ele>1543.5</ele>
        <time>2021-11-28T10:10:06Z</time>
      </trkpt>
      <trkpt lat="37.250393" lon="-3.329125">
        <ele>1543.5</ele>
        <time>2021-11-28T10:10:22Z</time>
      </trkpt>
      <trkpt lat="37.250521" lon="-3.328909">
        <ele>1542.6</ele>
        <time>2021-11-28T10:10:37Z</time>
      </trkpt>
      <trkpt lat="37.250640" lon="-3.328702">
        <ele>1541.1</ele>
        <time>2021-11-28T10:10:52Z</time>
      </trkpt>
      <trkpt lat="37.250727" lon="-3.328484">
        <ele>1540.6</ele>
        <time>2021-11-28T10:11:05Z</time>
      </trkpt>
      <trkpt lat="37.250725" lon="-3.328240">
        <ele>1540.6</ele>
        <time>2021-11-28T10:11:18Z</time>
      </trkpt>
      <trkpt lat="37.250664" lon="-3.328001">
        <ele>1540.6</ele>
        <time>2021-11-28T10:11:33Z</time>
      </trkpt>
      <trkpt lat="37.250556" lon="-3.327709">
        <ele>1540.6</ele>
        <time>2021-11-28T10:11:52Z</time>
      </trkpt>
      <trkpt lat="37.250386" lon="-3.327446">
        <ele>1541.1</ele>
        <time>2021-11-28T10:12:12Z</time>
      </trkpt>
      <trkpt lat="37.250290" lon="-3.327140">
        <ele>1542.6</ele>
        <time>2021-11-28T10:12:30Z</time>
      </trkpt>
      <trkpt lat="37.250188" lon="-3.326896">
        <ele>1542.6</ele>
        <time>2021-11-28T10:12:47Z</time>
      </trkpt>
      <trkpt lat="37.250073" lon="-3.326664">
        <ele>1544.0</ele>
        <time>2021-11-28T10:13:02Z</time>
      </trkpt>
      <trkpt lat="37.249965" lon="-3.326399">
        <ele>1545.0</ele>
        <time>2021-11-28T10:13:25Z</time>
      </trkpt>
      <trkpt lat="37.249911" lon="-3.326114">
        <ele>1545.5</ele>
        <time>2021-11-28T10:13:46Z</time>
      </trkpt>
      <trkpt lat="37.249906" lon="-3.325791">
        <ele>1547.4</ele>
        <time>2021-11-28T10:14:04Z</time>
      </trkpt>
      <trkpt lat="37.249970" lon="-3.325505">
        <ele>1547.9</ele>
        <time>2021-11-28T10:14:23Z</time>
      </trkpt>
      <trkpt lat="37.250020" lon="-3.325254">
        <ele>1549.3</ele>
        <time>2021-11-28T10:14:56Z</time>
      </trkpt>
      <trkpt lat="37.250075" lon="-3.324985">
        <ele>1549.3</ele>
        <time>2021-11-28T10:15:12Z</time>
      </trkpt>
      <trkpt lat="37.250047" lon="-3.324699">
        <ele>1550.3</ele>
        <time>2021-11-28T10:15:29Z</time>
      </trkpt>
      <trkpt lat="37.249944" lon="-3.324505">
        <ele>1551.7</ele>
        <time>2021-11-28T10:15:45Z</time>
      </trkpt>
      <trkpt lat="37.249774" lon="-3.324330">
        <ele>1551.2</ele>
        <time>2021-11-28T10:16:00Z</time>
      </trkpt>
      <trkpt lat="37.249646" lon="-3.324118">
        <ele>1553.6</ele>
        <time>2021-11-28T10:16:18Z</time>
      </trkpt>
      <trkpt lat="37.249601" lon="-3.323826">
        <ele>1554.6</ele>
        <time>2021-11-28T10:16:36Z</time>
      </trkpt>
      <trkpt lat="37.249648" lon="-3.323564">
        <ele>1556.0</ele>
        <time>2021-11-28T10:16:52Z</time>
      </trkpt>
      <trkpt lat="37.249688" lon="-3.323317">
        <ele>1559.4</ele>
        <time>2021-11-28T10:17:07Z</time>
      </trkpt>
      <trkpt lat="37.249728" lon="-3.323088">
        <ele>1558.4</ele>
        <time>2021-11-28T10:17:21Z</time>
      </trkpt>
      <trkpt lat="37.249764" lon="-3.322860">
        <ele>1558.9</ele>
        <time>2021-11-28T10:17:35Z</time>
      </trkpt>
      <trkpt lat="37.249735" lon="-3.322613">
        <ele>1559.4</ele>
        <time>2021-11-28T10:17:50Z</time>
      </trkpt>
      <trkpt lat="37.249630" lon="-3.322395">
        <ele>1559.9</ele>
        <time>2021-11-28T10:18:06Z</time>
      </trkpt>
      <trkpt lat="37.249480" lon="-3.322244">
        <ele>1560.4</ele>
        <time>2021-11-28T10:18:22Z</time>
      </trkpt>
      <trkpt lat="37.249364" lon="-3.322141">
        <ele>1559.9</ele>
        <time>2021-11-28T10:19:59Z</time>
      </trkpt>
      <trkpt lat="37.249373" lon="-3.322054">
        <ele>1558.9</ele>
        <time>2021-11-28T10:21:40Z</time>
      </trkpt>
      <trkpt lat="37.249372" lon="-3.322019">
        <ele>1559.4</ele>
        <time>2021-11-28T10:25:42Z</time>
      </trkpt>
      <trkpt lat="37.249361" lon="-3.322213">
        <ele>1559.9</ele>
        <time>2021-11-28T10:26:10Z</time>
      </trkpt>
      <trkpt lat="37.249241" lon="-3.322389">
        <ele>1559.4</ele>
        <time>2021-11-28T10:27:23Z</time>
      </trkpt>
      <trkpt lat="37.249157" lon="-3.322605">
        <ele>1562.3</ele>
        <time>2021-11-28T10:27:43Z</time>
      </trkpt>
      <trkpt lat="37.249130" lon="-3.322855">
        <ele>1562.8</ele>
        <time>2021-11-28T10:28:02Z</time>
      </trkpt>
      <trkpt lat="37.249108" lon="-3.323124">
        <ele>1562.8</ele>
        <time>2021-11-28T10:28:26Z</time>
      </trkpt>
      <trkpt lat="37.249072" lon="-3.323399">
        <ele>1564.7</ele>
        <time>2021-11-28T10:28:56Z</time>
      </trkpt>
      <trkpt lat="37.248930" lon="-3.323573">
        <ele>1565.2</ele>
        <time>2021-11-28T10:29:15Z</time>
      </trkpt>
      <trkpt lat="37.248747" lon="-3.323658">
        <ele>1566.6</ele>
        <time>2021-11-28T10:29:30Z</time>
      </trkpt>
      <trkpt lat="37.248570" lon="-3.323691">
        <ele>1566.6</ele>
        <time>2021-11-28T10:29:44Z</time>
      </trkpt>
      <trkpt lat="37.248369" lon="-3.323660">
        <ele>1567.6</ele>
        <time>2021-11-28T10:30:01Z</time>
      </trkpt>
      <trkpt lat="37.248158" lon="-3.323675">
        <ele>1570.0</ele>
        <time>2021-11-28T10:30:16Z</time>
      </trkpt>
      <trkpt lat="37.247971" lon="-3.323678">
        <ele>1570.0</ele>
        <time>2021-11-28T10:30:30Z</time>
      </trkpt>
      <trkpt lat="37.247779" lon="-3.323684">
        <ele>1569.5</ele>
        <time>2021-11-28T10:30:44Z</time>
      </trkpt>
      <trkpt lat="37.247596" lon="-3.323754">
        <ele>1568.0</ele>
        <time>2021-11-28T10:30:57Z</time>
      </trkpt>
      <trkpt lat="37.247420" lon="-3.323849">
        <ele>1568.0</ele>
        <time>2021-11-28T10:31:10Z</time>
      </trkpt>
      <trkpt lat="37.247241" lon="-3.323929">
        <ele>1566.6</ele>
        <time>2021-11-28T10:31:23Z</time>
      </trkpt>
      <trkpt lat="37.247063" lon="-3.323969">
        <ele>1567.1</ele>
        <time>2021-11-28T10:31:36Z</time>
      </trkpt>
      <trkpt lat="37.246886" lon="-3.324016">
        <ele>1567.1</ele>
        <time>2021-11-28T10:31:49Z</time>
      </trkpt>
      <trkpt lat="37.246708" lon="-3.324062">
        <ele>1568.0</ele>
        <time>2021-11-28T10:32:02Z</time>
      </trkpt>
      <trkpt lat="37.246519" lon="-3.324063">
        <ele>1569.0</ele>
        <time>2021-11-28T10:32:15Z</time>
      </trkpt>
      <trkpt lat="37.246333" lon="-3.324019">
        <ele>1570.0</ele>
        <time>2021-11-28T10:32:28Z</time>
      </trkpt>
      <trkpt lat="37.246162" lon="-3.323926">
        <ele>1570.9</ele>
        <time>2021-11-28T10:32:41Z</time>
      </trkpt>
      <trkpt lat="37.245994" lon="-3.323811">
        <ele>1571.9</ele>
        <time>2021-11-28T10:32:55Z</time>
      </trkpt>
      <trkpt lat="37.245817" lon="-3.323737">
        <ele>1572.9</ele>
        <time>2021-11-28T10:33:09Z</time>
      </trkpt>
      <trkpt lat="37.245633" lon="-3.323771">
        <ele>1573.3</ele>
        <time>2021-11-28T10:33:23Z</time>
      </trkpt>
      <trkpt lat="37.245447" lon="-3.323815">
        <ele>1572.9</ele>
        <time>2021-11-28T10:33:37Z</time>
      </trkpt>
      <trkpt lat="37.245265" lon="-3.323869">
        <ele>1578.1</ele>
        <time>2021-11-28T10:33:51Z</time>
      </trkpt>
      <trkpt lat="37.245081" lon="-3.323931">
        <ele>1578.1</ele>
        <time>2021-11-28T10:34:05Z</time>
      </trkpt>
      <trkpt lat="37.244911" lon="-3.324030">
        <ele>1575.3</ele>
        <time>2021-11-28T10:34:19Z</time>
      </trkpt>
      <trkpt lat="37.244741" lon="-3.324133">
        <ele>1576.2</ele>
        <time>2021-11-28T10:34:33Z</time>
      </trkpt>
      <trkpt lat="37.244559" lon="-3.324190">
        <ele>1578.6</ele>
        <time>2021-11-28T10:34:47Z</time>
      </trkpt>
      <trkpt lat="37.244372" lon="-3.324191">
        <ele>1579.1</ele>
        <time>2021-11-28T10:35:01Z</time>
      </trkpt>
      <trkpt lat="37.244191" lon="-3.324196">
        <ele>1579.6</ele>
        <time>2021-11-28T10:35:15Z</time>
      </trkpt>
      <trkpt lat="37.244012" lon="-3.324241">
        <ele>1579.6</ele>
        <time>2021-11-28T10:35:29Z</time>
      </trkpt>
      <trkpt lat="37.243834" lon="-3.324300">
        <ele>1580.5</ele>
        <time>2021-11-28T10:35:43Z</time>
      </trkpt>
      <trkpt lat="37.243653" lon="-3.324396">
        <ele>1581.0</ele>
        <time>2021-11-28T10:35:57Z</time>
      </trkpt>
      <trkpt lat="37.243482" lon="-3.324512">
        <ele>1580.5</ele>
        <time>2021-11-28T10:36:11Z</time>
      </trkpt>
      <trkpt lat="37.243308" lon="-3.324629">
        <ele>1580.5</ele>
        <time>2021-11-28T10:36:27Z</time>
      </trkpt>
      <trkpt lat="37.243127" lon="-3.324749">
        <ele>1579.6</ele>
        <time>2021-11-28T10:36:41Z</time>
      </trkpt>
      <trkpt lat="37.242966" lon="-3.324866">
        <ele>1580.1</ele>
        <time>2021-11-28T10:36:57Z</time>
      </trkpt>
      <trkpt lat="37.242861" lon="-3.325049">
        <ele>1580.1</ele>
        <time>2021-11-28T10:37:11Z</time>
      </trkpt>
      <trkpt lat="37.242803" lon="-3.325280">
        <ele>1579.6</ele>
        <time>2021-11-28T10:37:25Z</time>
      </trkpt>
      <trkpt lat="37.242737" lon="-3.325509">
        <ele>1578.1</ele>
        <time>2021-11-28T10:37:39Z</time>
      </trkpt>
      <trkpt lat="37.242660" lon="-3.325746">
        <ele>1577.2</ele>
        <time>2021-11-28T10:37:53Z</time>
      </trkpt>
      <trkpt lat="37.242542" lon="-3.325932">
        <ele>1575.7</ele>
        <time>2021-11-28T10:38:08Z</time>
      </trkpt>
      <trkpt lat="37.242352" lon="-3.325993">
        <ele>1574.3</ele>
        <time>2021-11-28T10:38:22Z</time>
      </trkpt>
      <trkpt lat="37.242142" lon="-3.326015">
        <ele>1574.3</ele>
        <time>2021-11-28T10:38:36Z</time>
      </trkpt>
      <trkpt lat="37.241943" lon="-3.326027">
        <ele>1573.8</ele>
        <time>2021-11-28T10:38:49Z</time>
      </trkpt>
      <trkpt lat="37.241748" lon="-3.326051">
        <ele>1573.3</ele>
        <time>2021-11-28T10:39:03Z</time>
      </trkpt>
      <trkpt lat="37.241559" lon="-3.326055">
        <ele>1571.9</ele>
        <time>2021-11-28T10:39:17Z</time>
      </trkpt>
      <trkpt lat="37.241357" lon="-3.326051">
        <ele>1570.9</ele>
        <time>2021-11-28T10:39:31Z</time>
      </trkpt>
      <trkpt lat="37.241162" lon="-3.326002">
        <ele>1570.5</ele>
        <time>2021-11-28T10:39:44Z</time>
      </trkpt>
      <trkpt lat="37.240979" lon="-3.326031">
        <ele>1569.0</ele>
        <time>2021-11-28T10:39:57Z</time>
      </trkpt>
      <trkpt lat="37.240808" lon="-3.326126">
        <ele>1568.5</ele>
        <time>2021-11-28T10:40:10Z</time>
      </trkpt>
      <trkpt lat="37.240615" lon="-3.326179">
        <ele>1568.0</ele>
        <time>2021-11-28T10:40:24Z</time>
      </trkpt>
      <trkpt lat="37.240527" lon="-3.326143">
        <ele>1567.6</ele>
        <time>2021-11-28T10:41:32Z</time>
      </trkpt>
      <trkpt lat="37.240408" lon="-3.325906">
        <ele>1567.1</ele>
        <time>2021-11-28T10:41:54Z</time>
      </trkpt>
      <trkpt lat="37.240372" lon="-3.325613">
        <ele>1567.1</ele>
        <time>2021-11-28T10:42:11Z</time>
      </trkpt>
      <trkpt lat="37.240324" lon="-3.325354">
        <ele>1565.6</ele>
        <time>2021-11-28T10:42:28Z</time>
      </trkpt>
      <trkpt lat="37.240261" lon="-3.325113">
        <ele>1564.2</ele>
        <time>2021-11-28T10:42:44Z</time>
      </trkpt>
      <trkpt lat="37.240168" lon="-3.324891">
        <ele>1561.8</ele>
        <time>2021-11-28T10:42:59Z</time>
      </trkpt>
      <trkpt lat="37.240039" lon="-3.324712">
        <ele>1559.9</ele>
        <time>2021-11-28T10:43:15Z</time>
      </trkpt>
      <trkpt lat="37.239909" lon="-3.324525">
        <ele>1557.0</ele>
        <time>2021-11-28T10:43:30Z</time>
      </trkpt>
      <trkpt lat="37.239764" lon="-3.324334">
        <ele>1555.1</ele>
        <time>2021-11-28T10:43:55Z</time>
      </trkpt>
      <trkpt lat="37.239627" lon="-3.324159">
        <ele>1552.2</ele>
        <time>2021-11-28T10:44:12Z</time>
      </trkpt>
      <trkpt lat="37.239493" lon="-3.323977">
        <ele>1552.2</ele>
        <time>2021-11-28T10:44:31Z</time>
      </trkpt>
      <trkpt lat="37.239342" lon="-3.323950">
        <ele>1550.7</ele>
        <time>2021-11-28T10:45:42Z</time>
      </trkpt>
      <trkpt lat="37.239148" lon="-3.323940">
        <ele>1550.3</ele>
        <time>2021-11-28T10:45:59Z</time>
      </trkpt>
      <trkpt lat="37.238945" lon="-3.323942">
        <ele>1548.8</ele>
        <time>2021-11-28T10:46:15Z</time>
      </trkpt>
      <trkpt lat="37.238742" lon="-3.323921">
        <ele>1548.3</ele>
        <time>2021-11-28T10:46:30Z</time>
      </trkpt>
      <trkpt lat="37.238556" lon="-3.323947">
        <ele>1544.0</ele>
        <time>2021-11-28T10:46:44Z</time>
      </trkpt>
      <trkpt lat="37.238378" lon="-3.324050">
        <ele>1549.8</ele>
        <time>2021-11-28T10:46:58Z</time>
      </trkpt>
      <trkpt lat="37.238192" lon="-3.324123">
        <ele>1548.8</ele>
        <time>2021-11-28T10:47:12Z</time>
      </trkpt>
      <trkpt lat="37.237998" lon="-3.324170">
        <ele>1547.9</ele>
        <time>2021-11-28T10:47:26Z</time>
      </trkpt>
      <trkpt lat="37.237801" lon="-3.324126">
        <ele>1546.9</ele>
        <time>2021-11-28T10:47:42Z</time>
      </trkpt>
      <trkpt lat="37.237594" lon="-3.324080">
        <ele>1546.9</ele>
        <time>2021-11-28T10:48:04Z</time>
      </trkpt>
      <trkpt lat="37.237406" lon="-3.324077">
        <ele>1545.9</ele>
        <time>2021-11-28T10:48:19Z</time>
      </trkpt>
      <trkpt lat="37.237183" lon="-3.324134">
        <ele>1546.4</ele>
        <time>2021-11-28T10:48:37Z</time>
      </trkpt>
      <trkpt lat="37.237065" lon="-3.324300">
        <ele>1546.4</ele>
        <time>2021-11-28T10:48:52Z</time>
      </trkpt>
      <trkpt lat="37.236994" lon="-3.324497">
        <ele>1545.5</ele>
        <time>2021-11-28T10:49:09Z</time>
      </trkpt>
      <trkpt lat="37.236887" lon="-3.324690">
        <ele>1545.0</ele>
        <time>2021-11-28T10:49:24Z</time>
      </trkpt>
      <trkpt lat="37.236777" lon="-3.324887">
        <ele>1544.5</ele>
        <time>2021-11-28T10:49:39Z</time>
      </trkpt>
      <trkpt lat="37.236646" lon="-3.325090">
        <ele>1545.0</ele>
        <time>2021-11-28T10:50:05Z</time>
      </trkpt>
      <trkpt lat="37.236543" lon="-3.325275">
        <ele>1542.6</ele>
        <time>2021-11-28T10:50:19Z</time>
      </trkpt>
      <trkpt lat="37.236430" lon="-3.325467">
        <ele>1541.1</ele>
        <time>2021-11-28T10:50:33Z</time>
      </trkpt>
      <trkpt lat="37.236404" lon="-3.325515">
        <ele>1541.6</ele>
        <time>2021-11-28T10:51:46Z</time>
      </trkpt>
      <trkpt lat="37.236240" lon="-3.325396">
        <ele>1539.2</ele>
        <time>2021-11-28T10:52:02Z</time>
      </trkpt>
      <trkpt lat="37.236067" lon="-3.325314">
        <ele>1536.3</ele>
        <time>2021-11-28T10:52:18Z</time>
      </trkpt>
      <trkpt lat="37.235877" lon="-3.325278">
        <ele>1533.0</ele>
        <time>2021-11-28T10:52:34Z</time>
      </trkpt>
      <trkpt lat="37.235707" lon="-3.325151">
        <ele>1531.0</ele>
        <time>2021-11-28T10:52:50Z</time>
      </trkpt>
      <trkpt lat="37.235550" lon="-3.325010">
        <ele>1527.2</ele>
        <time>2021-11-28T10:53:06Z</time>
      </trkpt>
      <trkpt lat="37.235382" lon="-3.324858">
        <ele>1525.7</ele>
        <time>2021-11-28T10:53:22Z</time>
      </trkpt>
      <trkpt lat="37.235231" lon="-3.324690">
        <ele>1524.3</ele>
        <time>2021-11-28T10:53:37Z</time>
      </trkpt>
      <trkpt lat="37.235071" lon="-3.324497">
        <ele>1520.0</ele>
        <time>2021-11-28T10:53:57Z</time>
      </trkpt>
      <trkpt lat="37.234920" lon="-3.324315">
        <ele>1517.6</ele>
        <time>2021-11-28T10:54:12Z</time>
      </trkpt>
      <trkpt lat="37.234782" lon="-3.324156">
        <ele>1515.7</ele>
        <time>2021-11-28T10:54:27Z</time>
      </trkpt>
      <trkpt lat="37.234620" lon="-3.324000">
        <ele>1515.2</ele>
        <time>2021-11-28T10:54:42Z</time>
      </trkpt>
      <trkpt lat="37.234536" lon="-3.324192">
        <ele>1511.3</ele>
        <time>2021-11-28T10:55:11Z</time>
      </trkpt>
      <trkpt lat="37.234528" lon="-3.324495">
        <ele>1505.1</ele>
        <time>2021-11-28T10:55:40Z</time>
      </trkpt>
      <trkpt lat="37.234492" lon="-3.324754">
        <ele>1502.2</ele>
        <time>2021-11-28T10:56:05Z</time>
      </trkpt>
      <trkpt lat="37.234411" lon="-3.325008">
        <ele>1497.9</ele>
        <time>2021-11-28T10:56:25Z</time>
      </trkpt>
      <trkpt lat="37.234283" lon="-3.325219">
        <ele>1496.4</ele>
        <time>2021-11-28T10:56:47Z</time>
      </trkpt>
      <trkpt lat="37.234205" lon="-3.325481">
        <ele>1490.7</ele>
        <time>2021-11-28T10:57:10Z</time>
      </trkpt>
      <trkpt lat="37.234100" lon="-3.325731">
        <ele>1490.7</ele>
        <time>2021-11-28T10:57:41Z</time>
      </trkpt>
      <trkpt lat="37.233992" lon="-3.325934">
        <ele>1488.7</ele>
        <time>2021-11-28T10:58:00Z</time>
      </trkpt>
      <trkpt lat="37.233881" lon="-3.326125">
        <ele>1485.9</ele>
        <time>2021-11-28T10:58:33Z</time>
      </trkpt>
      <trkpt lat="37.233773" lon="-3.326271">
        <ele>1480.1</ele>
        <time>2021-11-28T10:59:06Z</time>
      </trkpt>
      <trkpt lat="37.233721" lon="-3.326481">
        <ele>1474.3</ele>
        <time>2021-11-28T10:59:33Z</time>
      </trkpt>
      <trkpt lat="37.233609" lon="-3.326663">
        <ele>1469.5</ele>
        <time>2021-11-28T11:00:03Z</time>
      </trkpt>
      <trkpt lat="37.233472" lon="-3.326773">
        <ele>1464.2</ele>
        <time>2021-11-28T11:00:28Z</time>
      </trkpt>
      <trkpt lat="37.233507" lon="-3.327009">
        <ele>1458.9</ele>
        <time>2021-11-28T11:02:53Z</time>
      </trkpt>
      <trkpt lat="37.233471" lon="-3.327245">
        <ele>1454.6</ele>
        <time>2021-11-28T11:03:10Z</time>
      </trkpt>
      <trkpt lat="37.233303" lon="-3.327389">
        <ele>1449.8</ele>
        <time>2021-11-28T11:03:32Z</time>
      </trkpt>
      <trkpt lat="37.233160" lon="-3.327492">
        <ele>1443.1</ele>
        <time>2021-11-28T11:03:51Z</time>
      </trkpt>
      <trkpt lat="37.233037" lon="-3.327485">
        <ele>1438.3</ele>
        <time>2021-11-28T11:04:11Z</time>
      </trkpt>
      <trkpt lat="37.233083" lon="-3.327689">
        <ele>1436.3</ele>
        <time>2021-11-28T11:04:57Z</time>
      </trkpt>
      <trkpt lat="37.233046" lon="-3.327961">
        <ele>1429.6</ele>
        <time>2021-11-28T11:05:24Z</time>
      </trkpt>
      <trkpt lat="37.233036" lon="-3.328238">
        <ele>1422.4</ele>
        <time>2021-11-28T11:05:51Z</time>
      </trkpt>
      <trkpt lat="37.233073" lon="-3.328490">
        <ele>1419.0</ele>
        <time>2021-11-28T11:06:15Z</time>
      </trkpt>
      <trkpt lat="37.233094" lon="-3.328775">
        <ele>1416.6</ele>
        <time>2021-11-28T11:06:40Z</time>
      </trkpt>
      <trkpt lat="37.233107" lon="-3.329020">
        <ele>1417.1</ele>
        <time>2021-11-28T11:07:18Z</time>
      </trkpt>
      <trkpt lat="37.233029" lon="-3.329243">
        <ele>1416.6</ele>
        <time>2021-11-28T11:07:41Z</time>
      </trkpt>
      <trkpt lat="37.232979" lon="-3.329482">
        <ele>1414.7</ele>
        <time>2021-11-28T11:08:00Z</time>
      </trkpt>
      <trkpt lat="37.232879" lon="-3.329726">
        <ele>1413.3</ele>
        <time>2021-11-28T11:08:21Z</time>
      </trkpt>
      <trkpt lat="37.232847" lon="-3.330003">
        <ele>1408.9</ele>
        <time>2021-11-28T11:08:46Z</time>
      </trkpt>
      <trkpt lat="37.232818" lon="-3.330261">
        <ele>1405.6</ele>
        <time>2021-11-28T11:09:08Z</time>
      </trkpt>
      <trkpt lat="37.232796" lon="-3.330524">
        <ele>1403.7</ele>
        <time>2021-11-28T11:09:29Z</time>
      </trkpt>
      <trkpt lat="37.232759" lon="-3.330833">
        <ele>1401.7</ele>
        <time>2021-11-28T11:09:55Z</time>
      </trkpt>
      <trkpt lat="37.232714" lon="-3.331143">
        <ele>1395.0</ele>
        <time>2021-11-28T11:10:26Z</time>
      </trkpt>
      <trkpt lat="37.232537" lon="-3.331441">
        <ele>1395.5</ele>
        <time>2021-11-28T11:11:13Z</time>
      </trkpt>
      <trkpt lat="37.232506" lon="-3.331738">
        <ele>1395.0</ele>
        <time>2021-11-28T11:11:40Z</time>
      </trkpt>
      <trkpt lat="37.232385" lon="-3.332072">
        <ele>1393.6</ele>
        <time>2021-11-28T11:12:30Z</time>
      </trkpt>
      <trkpt lat="37.232373" lon="-3.332170">
        <ele>1392.1</ele>
        <time>2021-11-28T11:13:33Z</time>
      </trkpt>
      <trkpt lat="37.232278" lon="-3.332407">
        <ele>1387.8</ele>
        <time>2021-11-28T11:13:57Z</time>
      </trkpt>
      <trkpt lat="37.232206" lon="-3.332721">
        <ele>1383.5</ele>
        <time>2021-11-28T11:14:26Z</time>
      </trkpt>
      <trkpt lat="37.232091" lon="-3.333250">
        <ele>1384.4</ele>
        <time>2021-11-28T11:15:18Z</time>
      </trkpt>
      <trkpt lat="37.232061" lon="-3.333558">
        <ele>1384.0</ele>
        <time>2021-11-28T11:15:55Z</time>
      </trkpt>
      <trkpt lat="37.232016" lon="-3.333911">
        <ele>1382.0</ele>
        <time>2021-11-28T11:16:20Z</time>
      </trkpt>
      <trkpt lat="37.231855" lon="-3.334303">
        <ele>1372.9</ele>
        <time>2021-11-28T11:17:11Z</time>
      </trkpt>
      <trkpt lat="37.231635" lon="-3.334705">
        <ele>1370.5</ele>
        <time>2021-11-28T11:18:28Z</time>
      </trkpt>
      <trkpt lat="37.231586" lon="-3.335026">
        <ele>1369.5</ele>
        <time>2021-11-28T11:19:45Z</time>
      </trkpt>
      <trkpt lat="37.231455" lon="-3.335416">
        <ele>1368.6</ele>
        <time>2021-11-28T11:20:15Z</time>
      </trkpt>
      <trkpt lat="37.231388" lon="-3.335767">
        <ele>1365.2</ele>
        <time>2021-11-28T11:21:28Z</time>
      </trkpt>
      <trkpt lat="37.231274" lon="-3.335973">
        <ele>1362.3</ele>
        <time>2021-11-28T11:22:22Z</time>
      </trkpt>
      <trkpt lat="37.231118" lon="-3.336626">
        <ele>1355.6</ele>
        <time>2021-11-28T11:24:14Z</time>
      </trkpt>
      <trkpt lat="37.231035" lon="-3.336920">
        <ele>1356.1</ele>
        <time>2021-11-28T11:26:29Z</time>
      </trkpt>
      <trkpt lat="37.230953" lon="-3.337487">
        <ele>1355.6</ele>
        <time>2021-11-28T11:27:27Z</time>
      </trkpt>
      <trkpt lat="37.230975" lon="-3.337741">
        <ele>1355.6</ele>
        <time>2021-11-28T11:29:31Z</time>
      </trkpt>
      <trkpt lat="37.230901" lon="-3.337975">
        <ele>1355.1</ele>
        <time>2021-11-28T11:30:05Z</time>
      </trkpt>
      <trkpt lat="37.230844" lon="-3.338122">
        <ele>1349.8</ele>
        <time>2021-11-28T11:31:08Z</time>
      </trkpt>
      <trkpt lat="37.230822" lon="-3.338382">
        <ele>1354.6</ele>
        <time>2021-11-28T11:31:41Z</time>
      </trkpt>
      <trkpt lat="37.230708" lon="-3.338654">
        <ele>1352.2</ele>
        <time>2021-11-28T11:32:05Z</time>
      </trkpt>
      <trkpt lat="37.230576" lon="-3.338875">
        <ele>1350.8</ele>
        <time>2021-11-28T11:32:26Z</time>
      </trkpt>
      <trkpt lat="37.230434" lon="-3.339124">
        <ele>1351.8</ele>
        <time>2021-11-28T11:33:15Z</time>
      </trkpt>
      <trkpt lat="37.230443" lon="-3.339354">
        <ele>1349.3</ele>
        <time>2021-11-28T11:34:02Z</time>
      </trkpt>
      <trkpt lat="37.230427" lon="-3.339662">
        <ele>1347.4</ele>
        <time>2021-11-28T11:34:36Z</time>
      </trkpt>
      <trkpt lat="37.230298" lon="-3.339897">
        <ele>1344.5</ele>
        <time>2021-11-28T11:35:21Z</time>
      </trkpt>
      <trkpt lat="37.230141" lon="-3.340099">
        <ele>1345.5</ele>
        <time>2021-11-28T11:35:47Z</time>
      </trkpt>
      <trkpt lat="37.229991" lon="-3.340259">
        <ele>1342.6</ele>
        <time>2021-11-28T11:36:17Z</time>
      </trkpt>
      <trkpt lat="37.229931" lon="-3.340419">
        <ele>1342.1</ele>
        <time>2021-11-28T11:37:24Z</time>
      </trkpt>
      <trkpt lat="37.229944" lon="-3.340600">
        <ele>1343.6</ele>
        <time>2021-11-28T11:38:04Z</time>
      </trkpt>
      <trkpt lat="37.229897" lon="-3.340425">
        <ele>1340.7</ele>
        <time>2021-11-28T11:39:19Z</time>
      </trkpt>
      <trkpt lat="37.229749" lon="-3.340328">
        <ele>1336.4</ele>
        <time>2021-11-28T11:39:46Z</time>
      </trkpt>
      <trkpt lat="37.229579" lon="-3.340396">
        <ele>1334.4</ele>
        <time>2021-11-28T11:40:10Z</time>
      </trkpt>
      <trkpt lat="37.229365" lon="-3.340422">
        <ele>1334.0</ele>
        <time>2021-11-28T11:40:32Z</time>
      </trkpt>
      <trkpt lat="37.229139" lon="-3.340510">
        <ele>1333.5</ele>
        <time>2021-11-28T11:41:18Z</time>
      </trkpt>
      <trkpt lat="37.229272" lon="-3.340687">
        <ele>1341.2</ele>
        <time>2021-11-28T11:42:53Z</time>
      </trkpt>
      <trkpt lat="37.229289" lon="-3.340875">
        <ele>1344.5</ele>
        <time>2021-11-28T11:43:40Z</time>
      </trkpt>
      <trkpt lat="37.229212" lon="-3.341077">
        <ele>1342.6</ele>
        <time>2021-11-28T11:44:59Z</time>
      </trkpt>
      <trkpt lat="37.229046" lon="-3.341005">
        <ele>1334.9</ele>
        <time>2021-11-28T11:45:26Z</time>
      </trkpt>
      <trkpt lat="37.228951" lon="-3.341195">
        <ele>1333.0</ele>
        <time>2021-11-28T11:46:10Z</time>
      </trkpt>
      <trkpt lat="37.228946" lon="-3.341411">
        <ele>1334.9</ele>
        <time>2021-11-28T11:46:34Z</time>
      </trkpt>
      <trkpt lat="37.228900" lon="-3.341656">
        <ele>1333.0</ele>
        <time>2021-11-28T11:46:56Z</time>
      </trkpt>
      <trkpt lat="37.228909" lon="-3.341900">
        <ele>1332.5</ele>
        <time>2021-11-28T11:47:16Z</time>
      </trkpt>
      <trkpt lat="37.228789" lon="-3.342082">
        <ele>1333.5</ele>
        <time>2021-11-28T11:47:36Z</time>
      </trkpt>
      <trkpt lat="37.228827" lon="-3.342253">
        <ele>1335.9</ele>
        <time>2021-11-28T11:48:01Z</time>
      </trkpt>
      <trkpt lat="37.228741" lon="-3.342431">
        <ele>1337.3</ele>
        <time>2021-11-28T11:49:22Z</time>
      </trkpt>
      <trkpt lat="37.228713" lon="-3.342647">
        <ele>1331.1</ele>
        <time>2021-11-28T11:50:37Z</time>
      </trkpt>
      <trkpt lat="37.228528" lon="-3.342674">
        <ele>1329.2</ele>
        <time>2021-11-28T11:51:27Z</time>
      </trkpt>
      <trkpt lat="37.228477" lon="-3.342597">
        <ele>1327.7</ele>
        <time>2021-11-28T11:52:29Z</time>
      </trkpt>
      <trkpt lat="37.228432" lon="-3.342840">
        <ele>1326.3</ele>
        <time>2021-11-28T11:52:51Z</time>
      </trkpt>
      <trkpt lat="37.228386" lon="-3.343146">
        <ele>1326.8</ele>
        <time>2021-11-28T11:53:19Z</time>
      </trkpt>
      <trkpt lat="37.228515" lon="-3.343408">
        <ele>1329.2</ele>
        <time>2021-11-28T11:53:48Z</time>
      </trkpt>
      <trkpt lat="37.228446" lon="-3.343614">
        <ele>1330.6</ele>
        <time>2021-11-28T11:54:12Z</time>
      </trkpt>
      <trkpt lat="37.228394" lon="-3.343909">
        <ele>1328.2</ele>
        <time>2021-11-28T11:54:33Z</time>
      </trkpt>
      <trkpt lat="37.228223" lon="-3.344125">
        <ele>1321.9</ele>
        <time>2021-11-28T11:54:59Z</time>
      </trkpt>
      <trkpt lat="37.228128" lon="-3.344350">
        <ele>1319.5</ele>
        <time>2021-11-28T11:55:18Z</time>
      </trkpt>
      <trkpt lat="37.228036" lon="-3.344605">
        <ele>1316.7</ele>
        <time>2021-11-28T11:55:39Z</time>
      </trkpt>
      <trkpt lat="37.227999" lon="-3.344859">
        <ele>1315.2</ele>
        <time>2021-11-28T11:55:56Z</time>
      </trkpt>
      <trkpt lat="37.227971" lon="-3.345111">
        <ele>1316.2</ele>
        <time>2021-11-28T11:56:12Z</time>
      </trkpt>
      <trkpt lat="37.227835" lon="-3.345360">
        <ele>1314.3</ele>
        <time>2021-11-28T11:56:28Z</time>
      </trkpt>
      <trkpt lat="37.227732" lon="-3.345211">
        <ele>1316.7</ele>
        <time>2021-11-28T11:58:08Z</time>
      </trkpt>
      <trkpt lat="37.227624" lon="-3.345142">
        <ele>1319.1</ele>
        <time>2021-11-28T11:58:33Z</time>
      </trkpt>
      <trkpt lat="37.227467" lon="-3.345047">
        <ele>1325.8</ele>
        <time>2021-11-28T11:59:05Z</time>
      </trkpt>
      <trkpt lat="37.227393" lon="-3.345255">
        <ele>1328.7</ele>
        <time>2021-11-28T11:59:27Z</time>
      </trkpt>
      <trkpt lat="37.227287" lon="-3.345440">
        <ele>1325.8</ele>
        <time>2021-11-28T11:59:50Z</time>
      </trkpt>
      <trkpt lat="37.227153" lon="-3.345571">
        <ele>1328.2</ele>
        <time>2021-11-28T12:00:15Z</time>
      </trkpt>
      <trkpt lat="37.227096" lon="-3.345792">
        <ele>1330.1</ele>
        <time>2021-11-28T12:01:17Z</time>
      </trkpt>
      <trkpt lat="37.227017" lon="-3.346013">
        <ele>1327.2</ele>
        <time>2021-11-28T12:01:34Z</time>
      </trkpt>
      <trkpt lat="37.226868" lon="-3.346123">
        <ele>1324.4</ele>
        <time>2021-11-28T12:01:49Z</time>
      </trkpt>
      <trkpt lat="37.226716" lon="-3.346232">
        <ele>1322.9</ele>
        <time>2021-11-28T12:02:07Z</time>
      </trkpt>
      <trkpt lat="37.226547" lon="-3.346336">
        <ele>1320.5</ele>
        <time>2021-11-28T12:02:22Z</time>
      </trkpt>
      <trkpt lat="37.226442" lon="-3.346546">
        <ele>1318.1</ele>
        <time>2021-11-28T12:02:39Z</time>
      </trkpt>
      <trkpt lat="37.226410" lon="-3.346767">
        <ele>1316.7</ele>
        <time>2021-11-28T12:02:54Z</time>
      </trkpt>
      <trkpt lat="37.226605" lon="-3.346751">
        <ele>1317.6</ele>
        <time>2021-11-28T12:03:10Z</time>
      </trkpt>
      <trkpt lat="37.226787" lon="-3.346701">
        <ele>1319.5</ele>
        <time>2021-11-28T12:03:26Z</time>
      </trkpt>
      <trkpt lat="37.226992" lon="-3.346758">
        <ele>1320.5</ele>
        <time>2021-11-28T12:03:46Z</time>
      </trkpt>
      <trkpt lat="37.227175" lon="-3.346737">
        <ele>1320.5</ele>
        <time>2021-11-28T12:04:01Z</time>
      </trkpt>
      <trkpt lat="37.227338" lon="-3.346583">
        <ele>1318.1</ele>
        <time>2021-11-28T12:04:19Z</time>
      </trkpt>
      <trkpt lat="37.227563" lon="-3.346524">
        <ele>1315.7</ele>
        <time>2021-11-28T12:04:38Z</time>
      </trkpt>
      <trkpt lat="37.227800" lon="-3.346718">
        <ele>1312.8</ele>
        <time>2021-11-28T12:05:06Z</time>
      </trkpt>
      <trkpt lat="37.228073" lon="-3.346860">
        <ele>1312.3</ele>
        <time>2021-11-28T12:05:29Z</time>
      </trkpt>
      <trkpt lat="37.228412" lon="-3.346973">
        <ele>1310.9</ele>
        <time>2021-11-28T12:05:49Z</time>
      </trkpt>
      <trkpt lat="37.228660" lon="-3.347045">
        <ele>1310.9</ele>
        <time>2021-11-28T12:06:08Z</time>
      </trkpt>
      <trkpt lat="37.228891" lon="-3.347056">
        <ele>1310.9</ele>
        <time>2021-11-28T12:06:25Z</time>
      </trkpt>
      <trkpt lat="37.229099" lon="-3.347149">
        <ele>1311.4</ele>
        <time>2021-11-28T12:06:41Z</time>
      </trkpt>
      <trkpt lat="37.229242" lon="-3.347356">
        <ele>1312.3</ele>
        <time>2021-11-28T12:06:58Z</time>
      </trkpt>
      <trkpt lat="37.229437" lon="-3.347392">
        <ele>1310.4</ele>
        <time>2021-11-28T12:07:46Z</time>
      </trkpt>
      <trkpt lat="37.229626" lon="-3.347500">
        <ele>1313.8</ele>
        <time>2021-11-28T12:08:22Z</time>
      </trkpt>
      <trkpt lat="37.229820" lon="-3.347563">
        <ele>1311.9</ele>
        <time>2021-11-28T12:08:40Z</time>
      </trkpt>
      <trkpt lat="37.230021" lon="-3.347776">
        <ele>1312.3</ele>
        <time>2021-11-28T12:09:00Z</time>
      </trkpt>
      <trkpt lat="37.230222" lon="-3.348008">
        <ele>1310.4</ele>
        <time>2021-11-28T12:09:26Z</time>
      </trkpt>
      <trkpt lat="37.230506" lon="-3.348221">
        <ele>1308.5</ele>
        <time>2021-11-28T12:09:51Z</time>
      </trkpt>
      <trkpt lat="37.230816" lon="-3.348359">
        <ele>1307.0</ele>
        <time>2021-11-28T12:10:13Z</time>
      </trkpt>
      <trkpt lat="37.230898" lon="-3.348613">
        <ele>1305.1</ele>
        <time>2021-11-28T12:10:32Z</time>
      </trkpt>
      <trkpt lat="37.231003" lon="-3.348937">
        <ele>1305.6</ele>
        <time>2021-11-28T12:10:51Z</time>
      </trkpt>
      <trkpt lat="37.231177" lon="-3.349109">
        <ele>1304.2</ele>
        <time>2021-11-28T12:11:04Z</time>
      </trkpt>
      <trkpt lat="37.231267" lon="-3.349280">
        <ele>1303.2</ele>
        <time>2021-11-28T12:11:21Z</time>
      </trkpt>
      <trkpt lat="37.231403" lon="-3.349483">
        <ele>1302.7</ele>
        <time>2021-11-28T12:11:40Z</time>
      </trkpt>
      <trkpt lat="37.231665" lon="-3.349687">
        <ele>1301.3</ele>
        <time>2021-11-28T12:12:03Z</time>
      </trkpt>
      <trkpt lat="37.231766" lon="-3.349931">
        <ele>1300.3</ele>
        <time>2021-11-28T12:12:20Z</time>
      </trkpt>
      <trkpt lat="37.231925" lon="-3.350148">
        <ele>1300.3</ele>
        <time>2021-11-28T12:12:38Z</time>
      </trkpt>
      <trkpt lat="37.232150" lon="-3.350180">
        <ele>1299.8</ele>
        <time>2021-11-28T12:12:56Z</time>
      </trkpt>
      <trkpt lat="37.232355" lon="-3.350367">
        <ele>1298.9</ele>
        <time>2021-11-28T12:13:14Z</time>
      </trkpt>
      <trkpt lat="37.232661" lon="-3.350421">
        <ele>1298.9</ele>
        <time>2021-11-28T12:13:37Z</time>
      </trkpt>
      <trkpt lat="37.232816" lon="-3.350256">
        <ele>1297.9</ele>
        <time>2021-11-28T12:13:55Z</time>
      </trkpt>
      <trkpt lat="37.233016" lon="-3.350238">
        <ele>1296.5</ele>
        <time>2021-11-28T12:14:13Z</time>
      </trkpt>
      <trkpt lat="37.233062" lon="-3.350466">
        <ele>1294.6</ele>
        <time>2021-11-28T12:14:28Z</time>
      </trkpt>
      <trkpt lat="37.232975" lon="-3.350759">
        <ele>1292.1</ele>
        <time>2021-11-28T12:14:48Z</time>
      </trkpt>
      <trkpt lat="37.233001" lon="-3.351097">
        <ele>1291.7</ele>
        <time>2021-11-28T12:15:05Z</time>
      </trkpt>
      <trkpt lat="37.233063" lon="-3.351364">
        <ele>1289.7</ele>
        <time>2021-11-28T12:15:22Z</time>
      </trkpt>
      <trkpt lat="37.233232" lon="-3.351608">
        <ele>1287.8</ele>
        <time>2021-11-28T12:15:43Z</time>
      </trkpt>
      <trkpt lat="37.233372" lon="-3.351871">
        <ele>1286.9</ele>
        <time>2021-11-28T12:16:03Z</time>
      </trkpt>
      <trkpt lat="37.233489" lon="-3.352141">
        <ele>1285.4</ele>
        <time>2021-11-28T12:16:20Z</time>
      </trkpt>
      <trkpt lat="37.233522" lon="-3.352421">
        <ele>1285.4</ele>
        <time>2021-11-28T12:16:36Z</time>
      </trkpt>
      <trkpt lat="37.233669" lon="-3.352649">
        <ele>1284.5</ele>
        <time>2021-11-28T12:16:55Z</time>
      </trkpt>
      <trkpt lat="37.233778" lon="-3.352871">
        <ele>1284.5</ele>
        <time>2021-11-28T12:17:11Z</time>
      </trkpt>
      <trkpt lat="37.233881" lon="-3.353091">
        <ele>1286.4</ele>
        <time>2021-11-28T12:17:28Z</time>
      </trkpt>
      <trkpt lat="37.234065" lon="-3.353202">
        <ele>1285.9</ele>
        <time>2021-11-28T12:17:45Z</time>
      </trkpt>
      <trkpt lat="37.234217" lon="-3.353381">
        <ele>1284.9</ele>
        <time>2021-11-28T12:18:02Z</time>
      </trkpt>
      <trkpt lat="37.234360" lon="-3.353546">
        <ele>1284.0</ele>
        <time>2021-11-28T12:18:17Z</time>
      </trkpt>
      <trkpt lat="37.234460" lon="-3.353789">
        <ele>1284.5</ele>
        <time>2021-11-28T12:18:33Z</time>
      </trkpt>
      <trkpt lat="37.234507" lon="-3.354035">
        <ele>1284.9</ele>
        <time>2021-11-28T12:18:50Z</time>
      </trkpt>
      <trkpt lat="37.234483" lon="-3.354309">
        <ele>1286.4</ele>
        <time>2021-11-28T12:19:07Z</time>
      </trkpt>
      <trkpt lat="37.234482" lon="-3.354567">
        <ele>1285.9</ele>
        <time>2021-11-28T12:19:25Z</time>
      </trkpt>
      <trkpt lat="37.234497" lon="-3.354811">
        <ele>1284.0</ele>
        <time>2021-11-28T12:19:43Z</time>
      </trkpt>
      <trkpt lat="37.234618" lon="-3.355015">
        <ele>1284.0</ele>
        <time>2021-11-28T12:20:00Z</time>
      </trkpt>
      <trkpt lat="37.234746" lon="-3.355146">
        <ele>1284.5</ele>
        <time>2021-11-28T12:20:41Z</time>
      </trkpt>
      <trkpt lat="37.234870" lon="-3.355289">
        <ele>1285.4</ele>
        <time>2021-11-28T12:21:30Z</time>
      </trkpt>
      <trkpt lat="37.234871" lon="-3.355543">
        <ele>1283.0</ele>
        <time>2021-11-28T12:21:51Z</time>
      </trkpt>
      <trkpt lat="37.234804" lon="-3.355771">
        <ele>1281.6</ele>
        <time>2021-11-28T12:22:04Z</time>
      </trkpt>
      <trkpt lat="37.234727" lon="-3.355979">
        <ele>1279.7</ele>
        <time>2021-11-28T12:22:18Z</time>
      </trkpt>
      <trkpt lat="37.234694" lon="-3.356245">
        <ele>1278.7</ele>
        <time>2021-11-28T12:22:34Z</time>
      </trkpt>
      <trkpt lat="37.234703" lon="-3.356526">
        <ele>1278.2</ele>
        <time>2021-11-28T12:22:52Z</time>
      </trkpt>
      <trkpt lat="37.234725" lon="-3.356802">
        <ele>1278.2</ele>
        <time>2021-11-28T12:23:09Z</time>
      </trkpt>
      <trkpt lat="37.234863" lon="-3.357026">
        <ele>1277.2</ele>
        <time>2021-11-28T12:23:29Z</time>
      </trkpt>
      <trkpt lat="37.235129" lon="-3.357077">
        <ele>1274.8</ele>
        <time>2021-11-28T12:23:54Z</time>
      </trkpt>
      <trkpt lat="37.235368" lon="-3.357255">
        <ele>1272.9</ele>
        <time>2021-11-28T12:24:11Z</time>
      </trkpt>
      <trkpt lat="37.235537" lon="-3.357442">
        <ele>1272.4</ele>
        <time>2021-11-28T12:24:27Z</time>
      </trkpt>
      <trkpt lat="37.235771" lon="-3.357574">
        <ele>1272.4</ele>
        <time>2021-11-28T12:24:46Z</time>
      </trkpt>
      <trkpt lat="37.236002" lon="-3.357693">
        <ele>1271.5</ele>
        <time>2021-11-28T12:25:03Z</time>
      </trkpt>
      <trkpt lat="37.236202" lon="-3.357696">
        <ele>1269.6</ele>
        <time>2021-11-28T12:25:20Z</time>
      </trkpt>
      <trkpt lat="37.236382" lon="-3.357610">
        <ele>1269.6</ele>
        <time>2021-11-28T12:25:34Z</time>
      </trkpt>
      <trkpt lat="37.236560" lon="-3.357598">
        <ele>1269.1</ele>
        <time>2021-11-28T12:26:05Z</time>
      </trkpt>
      <trkpt lat="37.236738" lon="-3.357495">
        <ele>1269.1</ele>
        <time>2021-11-28T12:26:22Z</time>
      </trkpt>
      <trkpt lat="37.236886" lon="-3.357397">
        <ele>1267.6</ele>
        <time>2021-11-28T12:28:11Z</time>
      </trkpt>
      <trkpt lat="37.237074" lon="-3.357332">
        <ele>1267.2</ele>
        <time>2021-11-28T12:28:32Z</time>
      </trkpt>
      <trkpt lat="37.237071" lon="-3.357576">
        <ele>1268.6</ele>
        <time>2021-11-28T12:28:48Z</time>
      </trkpt>
      <trkpt lat="37.237050" lon="-3.357838">
        <ele>1269.6</ele>
        <time>2021-11-28T12:29:03Z</time>
      </trkpt>
      <trkpt lat="37.237013" lon="-3.358070">
        <ele>1268.6</ele>
        <time>2021-11-28T12:29:17Z</time>
      </trkpt>
      <trkpt lat="37.237127" lon="-3.358259">
        <ele>1269.6</ele>
        <time>2021-11-28T12:29:31Z</time>
      </trkpt>
      <trkpt lat="37.237304" lon="-3.358373">
        <ele>1270.0</ele>
        <time>2021-11-28T12:29:45Z</time>
      </trkpt>
      <trkpt lat="37.237443" lon="-3.358543">
        <ele>1271.0</ele>
        <time>2021-11-28T12:29:59Z</time>
      </trkpt>
      <trkpt lat="37.237546" lon="-3.358753">
        <ele>1271.0</ele>
        <time>2021-11-28T12:30:13Z</time>
      </trkpt>
      <trkpt lat="37.237717" lon="-3.358874">
        <ele>1271.0</ele>
        <time>2021-11-28T12:30:26Z</time>
      </trkpt>
      <trkpt lat="37.237892" lon="-3.358984">
        <ele>1270.5</ele>
        <time>2021-11-28T12:30:41Z</time>
      </trkpt>
      <trkpt lat="37.237966" lon="-3.359208">
        <ele>1270.0</ele>
        <time>2021-11-28T12:30:55Z</time>
      </trkpt>
      <trkpt lat="37.237977" lon="-3.359453">
        <ele>1268.1</ele>
        <time>2021-11-28T12:31:09Z</time>
      </trkpt>
      <trkpt lat="37.237934" lon="-3.359685">
        <ele>1266.2</ele>
        <time>2021-11-28T12:31:22Z</time>
      </trkpt>
      <trkpt lat="37.237880" lon="-3.359923">
        <ele>1265.2</ele>
        <time>2021-11-28T12:31:35Z</time>
      </trkpt>
      <trkpt lat="37.237876" lon="-3.360176">
        <ele>1265.2</ele>
        <time>2021-11-28T12:31:49Z</time>
      </trkpt>
      <trkpt lat="37.237835" lon="-3.360419">
        <ele>1265.2</ele>
        <time>2021-11-28T12:32:03Z</time>
      </trkpt>
      <trkpt lat="37.237711" lon="-3.360583">
        <ele>1263.3</ele>
        <time>2021-11-28T12:32:16Z</time>
      </trkpt>
      <trkpt lat="37.237571" lon="-3.360729">
        <ele>1263.3</ele>
        <time>2021-11-28T12:32:29Z</time>
      </trkpt>
      <trkpt lat="37.237484" lon="-3.360943">
        <ele>1261.4</ele>
        <time>2021-11-28T12:32:42Z</time>
      </trkpt>
      <trkpt lat="37.237423" lon="-3.361168">
        <ele>1260.9</ele>
        <time>2021-11-28T12:32:55Z</time>
      </trkpt>
      <trkpt lat="37.237408" lon="-3.361415">
        <ele>1259.5</ele>
        <time>2021-11-28T12:33:09Z</time>
      </trkpt>
      <trkpt lat="37.237443" lon="-3.361655">
        <ele>1259.5</ele>
        <time>2021-11-28T12:33:22Z</time>
      </trkpt>
      <trkpt lat="37.237548" lon="-3.361868">
        <ele>1257.1</ele>
        <time>2021-11-28T12:33:35Z</time>
      </trkpt>
      <trkpt lat="37.237670" lon="-3.362053">
        <ele>1256.1</ele>
        <time>2021-11-28T12:33:48Z</time>
      </trkpt>
      <trkpt lat="37.237829" lon="-3.362233">
        <ele>1256.1</ele>
        <time>2021-11-28T12:34:02Z</time>
      </trkpt>
      <trkpt lat="37.238008" lon="-3.362372">
        <ele>1255.6</ele>
        <time>2021-11-28T12:34:17Z</time>
      </trkpt>
      <trkpt lat="37.238203" lon="-3.362393">
        <ele>1255.6</ele>
        <time>2021-11-28T12:34:31Z</time>
      </trkpt>
      <trkpt lat="37.238400" lon="-3.362375">
        <ele>1256.1</ele>
        <time>2021-11-28T12:34:46Z</time>
      </trkpt>
      <trkpt lat="37.238603" lon="-3.362340">
        <ele>1256.1</ele>
        <time>2021-11-28T12:35:01Z</time>
      </trkpt>
      <trkpt lat="37.238781" lon="-3.362342">
        <ele>1256.6</ele>
        <time>2021-11-28T12:35:59Z</time>
      </trkpt>
      <trkpt lat="37.239015" lon="-3.362401">
        <ele>1255.6</ele>
        <time>2021-11-28T12:36:42Z</time>
      </trkpt>
      <trkpt lat="37.239218" lon="-3.362487">
        <ele>1253.7</ele>
        <time>2021-11-28T12:37:00Z</time>
      </trkpt>
      <trkpt lat="37.239271" lon="-3.362693">
        <ele>1253.2</ele>
        <time>2021-11-28T12:37:22Z</time>
      </trkpt>
      <trkpt lat="37.239352" lon="-3.362919">
        <ele>1249.4</ele>
        <time>2021-11-28T12:37:37Z</time>
      </trkpt>
      <trkpt lat="37.239421" lon="-3.363138">
        <ele>1247.9</ele>
        <time>2021-11-28T12:37:50Z</time>
      </trkpt>
      <trkpt lat="37.239475" lon="-3.363372">
        <ele>1244.6</ele>
        <time>2021-11-28T12:38:04Z</time>
      </trkpt>
      <trkpt lat="37.239523" lon="-3.363594">
        <ele>1244.1</ele>
        <time>2021-11-28T12:38:17Z</time>
      </trkpt>
      <trkpt lat="37.239540" lon="-3.363857">
        <ele>1243.1</ele>
        <time>2021-11-28T12:38:40Z</time>
      </trkpt>
      <trkpt lat="37.239652" lon="-3.364085">
        <ele>1239.8</ele>
        <time>2021-11-28T12:38:57Z</time>
      </trkpt>
      <trkpt lat="37.239658" lon="-3.364327">
        <ele>1238.3</ele>
        <time>2021-11-28T12:39:11Z</time>
      </trkpt>
      <trkpt lat="37.239614" lon="-3.364570">
        <ele>1238.3</ele>
        <time>2021-11-28T12:39:25Z</time>
      </trkpt>
      <trkpt lat="37.239502" lon="-3.364761">
        <ele>1235.9</ele>
        <time>2021-11-28T12:39:39Z</time>
      </trkpt>
      <trkpt lat="37.239392" lon="-3.364957">
        <ele>1234.0</ele>
        <time>2021-11-28T12:39:54Z</time>
      </trkpt>
      <trkpt lat="37.239351" lon="-3.365204">
        <ele>1230.6</ele>
        <time>2021-11-28T12:40:10Z</time>
      </trkpt>
      <trkpt lat="37.239458" lon="-3.365456">
        <ele>1230.1</ele>
        <time>2021-11-28T12:40:26Z</time>
      </trkpt>
      <trkpt lat="37.239615" lon="-3.365669">
        <ele>1230.6</ele>
        <time>2021-11-28T12:40:43Z</time>
      </trkpt>
      <trkpt lat="37.239569" lon="-3.365924">
        <ele>1231.1</ele>
        <time>2021-11-28T12:40:58Z</time>
      </trkpt>
      <trkpt lat="37.239470" lon="-3.366137">
        <ele>1230.6</ele>
        <time>2021-11-28T12:41:12Z</time>
      </trkpt>
      <trkpt lat="37.239314" lon="-3.366286">
        <ele>1230.6</ele>
        <time>2021-11-28T12:41:27Z</time>
      </trkpt>
      <trkpt lat="37.239172" lon="-3.366452">
        <ele>1230.1</ele>
        <time>2021-11-28T12:41:43Z</time>
      </trkpt>
      <trkpt lat="37.239279" lon="-3.366712">
        <ele>1233.0</ele>
        <time>2021-11-28T12:42:20Z</time>
      </trkpt>
      <trkpt lat="37.239553" lon="-3.366704">
        <ele>1233.0</ele>
        <time>2021-11-28T12:42:45Z</time>
      </trkpt>
      <trkpt lat="37.239726" lon="-3.366811">
        <ele>1234.0</ele>
        <time>2021-11-28T12:43:01Z</time>
      </trkpt>
      <trkpt lat="37.239847" lon="-3.366930">
        <ele>1234.5</ele>
        <time>2021-11-28T12:43:45Z</time>
      </trkpt>
      <trkpt lat="37.239889" lon="-3.367182">
        <ele>1233.5</ele>
        <time>2021-11-28T12:44:27Z</time>
      </trkpt>
      <trkpt lat="37.239894" lon="-3.367424">
        <ele>1234.5</ele>
        <time>2021-11-28T12:44:43Z</time>
      </trkpt>
      <trkpt lat="37.239965" lon="-3.367688">
        <ele>1235.9</ele>
        <time>2021-11-28T12:45:03Z</time>
      </trkpt>
      <trkpt lat="37.239972" lon="-3.367933">
        <ele>1234.0</ele>
        <time>2021-11-28T12:45:18Z</time>
      </trkpt>
      <trkpt lat="37.239939" lon="-3.368171">
        <ele>1235.4</ele>
        <time>2021-11-28T12:45:33Z</time>
      </trkpt>
      <trkpt lat="37.239927" lon="-3.368421">
        <ele>1235.0</ele>
        <time>2021-11-28T12:45:49Z</time>
      </trkpt>
      <trkpt lat="37.240057" lon="-3.368594">
        <ele>1231.6</ele>
        <time>2021-11-28T12:46:08Z</time>
      </trkpt>
      <trkpt lat="37.240195" lon="-3.368763">
        <ele>1227.7</ele>
        <time>2021-11-28T12:46:25Z</time>
      </trkpt>
      <trkpt lat="37.240333" lon="-3.368969">
        <ele>1226.8</ele>
        <time>2021-11-28T12:46:42Z</time>
      </trkpt>
      <trkpt lat="37.240399" lon="-3.369217">
        <ele>1225.8</ele>
        <time>2021-11-28T12:46:57Z</time>
      </trkpt>
      <trkpt lat="37.240454" lon="-3.369448">
        <ele>1225.3</ele>
        <time>2021-11-28T12:47:11Z</time>
      </trkpt>
      <trkpt lat="37.240498" lon="-3.369693">
        <ele>1226.8</ele>
        <time>2021-11-28T12:47:26Z</time>
      </trkpt>
      <trkpt lat="37.240494" lon="-3.369946">
        <ele>1229.7</ele>
        <time>2021-11-28T12:47:43Z</time>
      </trkpt>
      <trkpt lat="37.240430" lon="-3.370196">
        <ele>1230.6</ele>
        <time>2021-11-28T12:48:01Z</time>
      </trkpt>
      <trkpt lat="37.240365" lon="-3.370453">
        <ele>1225.3</ele>
        <time>2021-11-28T12:48:33Z</time>
      </trkpt>
      <trkpt lat="37.240296" lon="-3.370491">
        <ele>1222.9</ele>
        <time>2021-11-28T12:49:05Z</time>
      </trkpt>
      <trkpt lat="37.240334" lon="-3.370414">
        <ele>1226.8</ele>
        <time>2021-11-28T12:50:14Z</time>
      </trkpt>
      <trkpt lat="37.240448" lon="-3.370365">
        <ele>1229.2</ele>
        <time>2021-11-28T12:50:36Z</time>
      </trkpt>
      <trkpt lat="37.240552" lon="-3.370588">
        <ele>1232.5</ele>
        <time>2021-11-28T12:50:56Z</time>
      </trkpt>
      <trkpt lat="37.240688" lon="-3.370776">
        <ele>1230.6</ele>
        <time>2021-11-28T12:51:23Z</time>
      </trkpt>
      <trkpt lat="37.240810" lon="-3.370978">
        <ele>1230.6</ele>
        <time>2021-11-28T12:51:40Z</time>
      </trkpt>
      <trkpt lat="37.240913" lon="-3.371182">
        <ele>1233.0</ele>
        <time>2021-11-28T12:52:02Z</time>
      </trkpt>
      <trkpt lat="37.241082" lon="-3.371369">
        <ele>1236.4</ele>
        <time>2021-11-28T12:52:43Z</time>
      </trkpt>
      <trkpt lat="37.241235" lon="-3.371547">
        <ele>1241.7</ele>
        <time>2021-11-28T12:53:05Z</time>
      </trkpt>
      <trkpt lat="37.241365" lon="-3.371768">
        <ele>1238.3</ele>
        <time>2021-11-28T12:53:41Z</time>
      </trkpt>
      <trkpt lat="37.241328" lon="-3.371847">
        <ele>1232.1</ele>
        <time>2021-11-28T12:54:07Z</time>
      </trkpt>
      <trkpt lat="37.241127" lon="-3.371780">
        <ele>1227.3</ele>
        <time>2021-11-28T12:54:53Z</time>
      </trkpt>
      <trkpt lat="37.241144" lon="-3.371999">
        <ele>1224.4</ele>
        <time>2021-11-28T12:55:26Z</time>
      </trkpt>
      <trkpt lat="37.241023" lon="-3.372034">
        <ele>1222.9</ele>
        <time>2021-11-28T12:57:56Z</time>
      </trkpt>
    </trkseg>
  </trk>
</gpx>
